Observation data for Sierra Blanca on 12/09/2018      Previous  Date       Current Mesonet Observations  Soil Data  Daily Summary Page  Observations in Plain Language
KSB1 090600Z 14001KT 04/04 A3032 RMK A01 T00410035  RH  096%=      5-min Rain = 0
KSB1 090601Z 13001KT 04/04 A3032 RMK A01 T00410035  RH  096%=      5-min Rain = 0
KSB1 090602Z 13001KT 04/04 A3032 RMK A01 T00410035  RH  096%=      5-min Rain = 0
KSB1 090603Z 14001KT 04/03 A3032 RMK A01 T00400034  RH  096%=      5-min Rain = 0
KSB1 090604Z 14002KT 04/03 A3032 RMK A01 T00400034  RH  096%=      5-min Rain = 0
KSB1 090605Z 14002KT 04/03 A3032 RMK A01 T00390033  RH  096%=      5-min Rain = 0
KSB1 090606Z 18001KT 04/03 A3032 RMK A01 T00400034  RH  096%=      5-min Rain = 0
KSB1 090607Z 14002KT 04/03 A3031 RMK A01 T00400034  RH  096%=      5-min Rain = 0
KSB1 090608Z 13002KT 04/03 A3031 RMK A01 T00400034  RH  096%=      5-min Rain = 0
KSB1 090609Z 14003KT 04/03 A3031 RMK A01 T00400034  RH  096%=      5-min Rain = 0
KSB1 090610Z 14003KT 04/03 A3031 RMK A01 T00400034  RH  096%=      5-min Rain = 0
KSB1 090611Z 16002KT 04/03 A3031 RMK A01 T00400034  RH  096%=      5-min Rain = 0
KSB1 090612Z 16003KT 04/03 A3031 RMK A01 T00400033  RH  096%=      5-min Rain = 0
KSB1 090613Z 14004KT 04/03 A3031 RMK A01 T00390033  RH  096%=      5-min Rain = 0
KSB1 090614Z 14004KT 04/03 A3031 RMK A01 T00380031  RH  095%=      5-min Rain = 0
KSB1 090615Z 15003KT 04/03 A3031 RMK A01 T00360028  RH  095%=      5-min Rain = 0
KSB1 090616Z 15003KT 04/03 A3031 RMK A01 T00350028  RH  095%=      5-min Rain = 0
KSB1 090617Z 14003KT 04/03 A3031 RMK A01 T00350028  RH  095%=      5-min Rain = 0
KSB1 090618Z 14003KT 04/03 A3031 RMK A01 T00350029  RH  095%=      5-min Rain = 0
KSB1 090619Z 13004KT 04/03 A3031 RMK A01 T00360029  RH  096%=      5-min Rain = 0
KSB1 090620Z 13004KT 04/03 A3031 RMK A01 T00360030  RH  096%=      5-min Rain = 0
KSB1 090621Z 13004KT 04/03 A3031 RMK A01 T00360030  RH  096%=      5-min Rain = 0
KSB1 090622Z 14004KT 04/03 A3031 RMK A01 T00360031  RH  096%=      5-min Rain = 0
KSB1 090623Z 14004KT 04/03 A3031 RMK A01 T00370031  RH  096%=      5-min Rain = 0
KSB1 090624Z 14003KT 04/03 A3031 RMK A01 T00370031  RH  096%=      5-min Rain = 0
KSB1 090625Z 14003KT 04/03 A3031 RMK A01 T00360031  RH  096%=      5-min Rain = 0
KSB1 090626Z 15002KT 04/03 A3031 RMK A01 T00360030  RH  096%=      5-min Rain = 0
KSB1 090627Z 15003KT 04/03 A3031 RMK A01 T00350029  RH  096%=      5-min Rain = 0
KSB1 090628Z 15003KT 03/03 A3031 RMK A01 T00340028  RH  096%=      5-min Rain = 0
KSB1 090629Z 15002KT 03/03 A3031 RMK A01 T00340028  RH  096%=      5-min Rain = 0
KSB1 090630Z 16003KT 03/03 A3031 RMK A01 T00330027  RH  096%=      5-min Rain = 0
KSB1 090631Z 16002KT 03/03 A3031 RMK A01 T00330027  RH  096%=      5-min Rain = 0
KSB1 090632Z 17002KT 03/03 A3031 RMK A01 T00330028  RH  096%=      5-min Rain = 0
KSB1 090633Z 17002KT 03/03 A3031 RMK A01 T00340029  RH  096%=      5-min Rain = 0
KSB1 090634Z 19002KT 04/03 A3031 RMK A01 T00360031  RH  097%=      5-min Rain = 0
KSB1 090635Z 19002KT 04/03 A3031 RMK A01 T00370032  RH  097%=      5-min Rain = 0
KSB1 090636Z 19001KT 04/03 A3031 RMK A01 T00350031  RH  097%=      5-min Rain = 0
KSB1 090637Z 19001KT 03/03 A3031 RMK A01 T00340028  RH  096%=      5-min Rain = 0
KSB1 090638Z 22001KT 03/03 A3031 RMK A01 T00330028  RH  096%=      5-min Rain = 0
KSB1 090639Z 21001KT 03/03 A3031 RMK A01 T00330028  RH  096%=      5-min Rain = 0
KSB1 090640Z 21001KT 03/03 A3031 RMK A01 T00330028  RH  097%=      5-min Rain = 0
KSB1 090641Z 20002KT 03/03 A3031 RMK A01 T00330028  RH  097%=      5-min Rain = 0
KSB1 090642Z 19002KT 03/03 A3031 RMK A01 T00320027  RH  097%=      5-min Rain = 0
KSB1 090643Z 18002KT 03/03 A3031 RMK A01 T00320027  RH  097%=      5-min Rain = 0
KSB1 090644Z 18002KT 03/03 A3031 RMK A01 T00320028  RH  097%=      5-min Rain = 0
KSB1 090645Z 15002KT 03/03 A3031 RMK A01 T00320028  RH  097%=      5-min Rain = 0
KSB1 090646Z 13001KT 03/03 A3031 RMK A01 T00320028  RH  097%=      5-min Rain = 0
KSB1 090647Z 14000KT 03/03 A3031 RMK A01 T00320028  RH  097%=      5-min Rain = 0
KSB1 090648Z 15001KT 03/03 A3031 RMK A01 T00330029  RH  097%=      5-min Rain = 0
KSB1 090649Z 15002KT 03/03 A3031 RMK A01 T00340030  RH  097%=      5-min Rain = 0
KSB1 090650Z 16002KT 04/03 A3031 RMK A01 T00350031  RH  097%=      5-min Rain = 0
KSB1 090651Z 16002KT 04/03 A3031 RMK A01 T00360032  RH  097%=      5-min Rain = 0
KSB1 090652Z 17002KT 04/03 A3031 RMK A01 T00360033  RH  097%=      5-min Rain = 0
KSB1 090653Z 16002KT 04/03 A3031 RMK A01 T00370033  RH  097%=      5-min Rain = 0
KSB1 090654Z 16002KT 04/04 A3031 RMK A01 T00380035  RH  097%=      5-min Rain = 0
KSB1 090655Z 14002KT 04/04 A3031 RMK A01 T00390035  RH  097%=      5-min Rain = 0
KSB1 090656Z 13002KT 04/04 A3031 RMK A01 T00400036  RH  097%=      5-min Rain = 0
KSB1 090657Z 13002KT 04/04 A3031 RMK A01 T00390036  RH  097%=      5-min Rain = 0
KSB1 090658Z 12002KT 04/04 A3031 RMK A01 T00390035  RH  097%=      5-min Rain = 0
KSB1 090659Z 11002KT 04/04 A3031 RMK A01 T00390035  RH  097%=      5-min Rain = 0
KSB1 090700Z 12002KT 04/04 A3031 RMK A01 T00400036  RH  097%=      5-min Rain = 0
KSB1 090701Z 13002KT 04/04 A3031 RMK A01 T00410037  RH  097%=      5-min Rain = 0
KSB1 090702Z 13003KT 04/04 A3031 RMK A01 T00420038  RH  097%=      5-min Rain = 0
KSB1 090703Z 13003KT 04/04 A3031 RMK A01 T00430040  RH  097%=      5-min Rain = 0
KSB1 090704Z 12003KT 05/04 A3031 RMK A01 T00450041  RH  097%=      5-min Rain = 0
KSB1 090705Z 17003KT 04/04 A3031 RMK A01 T00440040  RH  097%=      5-min Rain = 0
KSB1 090706Z 20002KT 04/03 A3031 RMK A01 T00360029  RH  096%=      5-min Rain = 0
KSB1 090707Z 18003KT 03/02 A3031 RMK A01 T00270019  RH  094%=      5-min Rain = 0
KSB1 090708Z 18002KT 02/01 A3031 RMK A01 T00230014  RH  094%=      5-min Rain = 0
KSB1 090709Z 17001KT 02/02 A303 RMK A01 T00230015  RH  095%=      5-min Rain = 0
KSB1 090710Z 15000KT 02/02 A303 RMK A01 T00230016  RH  095%=      5-min Rain = 0
KSB1 090711Z 22002KT 02/02 A303 RMK A01 T00240017  RH  096%=      5-min Rain = 0
KSB1 090712Z 23001KT 02/02 A303 RMK A01 T00240019  RH  096%=      5-min Rain = 0
KSB1 090713Z 17001KT 03/02 A303 RMK A01 T00270022  RH  097%=      5-min Rain = 0
KSB1 090714Z 19001KT 03/03 A303 RMK A01 T00290025  RH  097%=      5-min Rain = 0
KSB1 090715Z 22002KT 03/03 A303 RMK A01 T00290025  RH  097%=      5-min Rain = 0
KSB1 090716Z 21002KT 03/03 A303 RMK A01 T00300026  RH  097%=      5-min Rain = 0
KSB1 090717Z 22002KT 03/03 A3031 RMK A01 T00300026  RH  097%=      5-min Rain = 0
KSB1 090718Z 23003KT 03/03 A3031 RMK A01 T00290025  RH  097%=      5-min Rain = 0
KSB1 090719Z 22003KT 03/02 A3031 RMK A01 T00280023  RH  097%=      5-min Rain = 0
KSB1 090720Z 21003KT 03/02 A3031 RMK A01 T00280024  RH  097%=      5-min Rain = 0
KSB1 090721Z 20002KT 03/02 A3031 RMK A01 T00280024  RH  097%=      5-min Rain = 0
KSB1 090722Z 23003KT 03/03 A3031 RMK A01 T00290025  RH  097%=      5-min Rain = 0
KSB1 090723Z 23003KT 03/03 A3031 RMK A01 T00290025  RH  097%=      5-min Rain = 0
KSB1 090724Z 23002KT 03/03 A3031 RMK A01 T00290025  RH  097%=      5-min Rain = 0
KSB1 090725Z 23002KT 03/03 A3031 RMK A01 T00300026  RH  097%=      5-min Rain = 0
KSB1 090726Z 21001KT 03/03 A3031 RMK A01 T00310027  RH  097%=      5-min Rain = 0
KSB1 090727Z 17001KT 03/03 A3031 RMK A01 T00310027  RH  097%=      5-min Rain = 0
KSB1 090728Z 23001KT 03/03 A3031 RMK A01 T00310028  RH  098%=      5-min Rain = 0
KSB1 090729Z 24002KT 03/03 A3031 RMK A01 T00320029  RH  098%=      5-min Rain = 0
KSB1 090730Z 21001KT 03/03 A3031 RMK A01 T00320029  RH  098%=      5-min Rain = 0
KSB1 090731Z 15001KT 03/03 A3031 RMK A01 T00320028  RH  098%=      5-min Rain = 0
KSB1 090732Z 18001KT 03/03 A3031 RMK A01 T00320029  RH  098%=      5-min Rain = 0
KSB1 090733Z 19002KT 03/03 A3031 RMK A01 T00330030  RH  098%=      5-min Rain = 0
KSB1 090734Z 21002KT 03/03 A3031 RMK A01 T00340030  RH  098%=      5-min Rain = 0
KSB1 090735Z 19002KT 03/03 A3031 RMK A01 T00340030  RH  098%=      5-min Rain = 0
KSB1 090736Z 18002KT 03/03 A3031 RMK A01 T00330030  RH  097%=      5-min Rain = 0
KSB1 090737Z 21001KT 03/03 A3031 RMK A01 T00320028  RH  097%=      5-min Rain = 0
KSB1 090738Z 20000KT 03/03 A3031 RMK A01 T00320028  RH  097%=      5-min Rain = 0
KSB1 090739Z 19000KT 03/03 A3031 RMK A01 T00320029  RH  097%=      5-min Rain = 0
KSB1 090740Z 22000KT 03/03 A3031 RMK A01 T00330029  RH  098%=      5-min Rain = 0
KSB1 090741Z 00000KT 03/03 A3031 RMK A01 T00340030  RH  098%=      5-min Rain = 0
KSB1 090742Z 13001KT 03/03 A3031 RMK A01 T00340031  RH  098%=      5-min Rain = 0
KSB1 090743Z 13001KT 04/03 A3031 RMK A01 T00350031  RH  098%=      5-min Rain = 0
KSB1 090744Z 15001KT 04/03 A3031 RMK A01 T00350032  RH  098%=      5-min Rain = 0
KSB1 090745Z 15001KT 04/03 A3031 RMK A01 T00360032  RH  098%=      5-min Rain = 0
KSB1 090746Z 15000KT 04/03 A3031 RMK A01 T00360032  RH  098%=      5-min Rain = 0
KSB1 090747Z 00000KT 04/03 A3031 RMK A01 T00360033  RH  098%=      5-min Rain = 0
KSB1 090748Z 00000KT 04/03 A3031 RMK A01 T00370034  RH  098%=      5-min Rain = 0
KSB1 090749Z 15000KT 04/03 A3031 RMK A01 T00370034  RH  098%=      5-min Rain = 0
KSB1 090750Z 17001KT 04/03 A3031 RMK A01 T00380034  RH  098%=      5-min Rain = 0
KSB1 090751Z 17001KT 04/03 A3031 RMK A01 T00370034  RH  098%=      5-min Rain = 0
KSB1 090752Z 21001KT 04/03 A3031 RMK A01 T00370034  RH  098%=      5-min Rain = 0
KSB1 090753Z 24002KT 04/03 A3031 RMK A01 T00360033  RH  098%=      5-min Rain = 0
KSB1 090754Z 22002KT 04/03 A3031 RMK A01 T00350031  RH  097%=      5-min Rain = 0
KSB1 090755Z 21001KT 04/03 A3031 RMK A01 T00350031  RH  098%=      5-min Rain = 0
KSB1 090756Z 22002KT 04/03 A3031 RMK A01 T00360033  RH  098%=      5-min Rain = 0
KSB1 090757Z 25002KT 04/03 A3031 RMK A01 T00370033  RH  098%=      5-min Rain = 0
KSB1 090758Z 26002KT 04/03 A3031 RMK A01 T00360033  RH  098%=      5-min Rain = 0
KSB1 090759Z 24000KT 04/03 A3031 RMK A01 T00360033  RH  098%=      5-min Rain = 0
KSB1 090800Z 27000KT 04/03 A3031 RMK A01 T00370033  RH  098%=      5-min Rain = 0
KSB1 090801Z 27000KT 04/03 A3031 RMK A01 T00370034  RH  098%=      5-min Rain = 0
KSB1 090802Z 02000KT 04/04 A3031 RMK A01 T00390035  RH  098%=      5-min Rain = 0
KSB1 090803Z 02001KT 04/04 A3031 RMK A01 T00400037  RH  098%=      5-min Rain = 0
KSB1 090804Z 26002KT 04/04 A3031 RMK A01 T00400036  RH  098%=      5-min Rain = 0
KSB1 090805Z 27003KT 04/04 A3031 RMK A01 T00400036  RH  098%=      5-min Rain = 0
KSB1 090806Z 27001KT 04/04 A3031 RMK A01 T00390035  RH  098%=      5-min Rain = 0
KSB1 090807Z 04000KT 04/04 A3031 RMK A01 T00390035  RH  098%=      5-min Rain = 0
KSB1 090808Z 04001KT 04/04 A3031 RMK A01 T00390036  RH  098%=      5-min Rain = 0
KSB1 090809Z 30000KT 04/04 A3031 RMK A01 T00400037  RH  098%=      5-min Rain = 0
KSB1 090810Z 30000KT 04/04 A3031 RMK A01 T00410037  RH  098%=      5-min Rain = 0
KSB1 090811Z 00000KT 04/04 A3031 RMK A01 T00420038  RH  098%=      5-min Rain = 0
KSB1 090812Z 08001KT 04/04 A3031 RMK A01 T00420039  RH  098%=      5-min Rain = 0
KSB1 090813Z 04002KT 04/04 A3031 RMK A01 T00420039  RH  098%=      5-min Rain = 0
KSB1 090814Z 02003KT 04/04 A3031 RMK A01 T00440040  RH  098%=      5-min Rain = 0
KSB1 090815Z 01002KT 04/04 A3031 RMK A01 T00440040  RH  097%=      5-min Rain = 0
KSB1 090816Z 01000KT 04/04 A3031 RMK A01 T00430039  RH  097%=      5-min Rain = 0
KSB1 090817Z 06001KT 04/04 A3031 RMK A01 T00420037  RH  097%=      5-min Rain = 0
KSB1 090818Z 05002KT 04/04 A3031 RMK A01 T00410036  RH  097%=      5-min Rain = 0
KSB1 090819Z 05001KT 04/04 A3031 RMK A01 T00410036  RH  096%=      5-min Rain = 0
KSB1 090820Z 00000KT 04/04 A3031 RMK A01 T00410035  RH  096%=      5-min Rain = 0
KSB1 090821Z 00000KT 04/04 A3031 RMK A01 T00410035  RH  096%=      5-min Rain = 0
KSB1 090822Z 32000KT 04/04 A3031 RMK A01 T00410035  RH  096%=      5-min Rain = 0
KSB1 090823Z 00000KT 04/04 A3031 RMK A01 T00410036  RH  096%=      5-min Rain = 0
KSB1 090824Z 00000KT 04/04 A3031 RMK A01 T00420036  RH  096%=      5-min Rain = 0
KSB1 090825Z 01001KT 04/04 A3031 RMK A01 T00420036  RH  096%=      5-min Rain = 0
KSB1 090826Z 01001KT 04/04 A3031 RMK A01 T00410036  RH  096%=      5-min Rain = 0
KSB1 090827Z 00001KT 04/04 A3031 RMK A01 T00420037  RH  096%=      5-min Rain = 0
KSB1 090828Z 02001KT 04/04 A3031 RMK A01 T00430037  RH  096%=      5-min Rain = 0
KSB1 090829Z 02000KT 04/04 A3031 RMK A01 T00430037  RH  096%=      5-min Rain = 0
KSB1 090830Z 00000KT 04/04 A3031 RMK A01 T00430037  RH  096%=      5-min Rain = 0
KSB1 090831Z 00000KT 04/04 A3031 RMK A01 T00430037  RH  096%=      5-min Rain = 0
KSB1 090832Z 01000KT 04/04 A3031 RMK A01 T00430036  RH  096%=      5-min Rain = 0
KSB1 090833Z 01000KT 04/04 A3031 RMK A01 T00430036  RH  096%=      5-min Rain = 0
KSB1 090834Z 01000KT 04/04 A3031 RMK A01 T00420036  RH  096%=      5-min Rain = 0
KSB1 090835Z 00000KT 04/04 A3031 RMK A01 T00420036  RH  096%=      5-min Rain = 0
KSB1 090836Z 00000KT 04/04 A303 RMK A01 T00420036  RH  096%=      5-min Rain = 0
KSB1 090837Z 00000KT 04/04 A303 RMK A01 T00420036  RH  096%=      5-min Rain = 0
KSB1 090838Z 00000KT 04/04 A303 RMK A01 T00420036  RH  096%=      5-min Rain = 0
KSB1 090839Z 25001KT 04/04 A3031 RMK A01 T00430036  RH  096%=      5-min Rain = 0
KSB1 090840Z 25001KT 04/04 A3031 RMK A01 T00430036  RH  095%=      5-min Rain = 0
KSB1 090841Z 24002KT 04/03 A3031 RMK A01 T00410034  RH  095%=      5-min Rain = 0
KSB1 090842Z 23002KT 04/03 A3031 RMK A01 T00380030  RH  094%=      5-min Rain = 0
KSB1 090843Z 23001KT 04/03 A3031 RMK A01 T00370029  RH  095%=      5-min Rain = 0
KSB1 090844Z 23001KT 04/03 A3031 RMK A01 T00370030  RH  095%=      5-min Rain = 0
KSB1 090845Z 23000KT 04/03 A3031 RMK A01 T00380032  RH  095%=      5-min Rain = 0
KSB1 090846Z 00000KT 04/03 A3031 RMK A01 T00380031  RH  095%=      5-min Rain = 0
KSB1 090847Z 00000KT 04/03 A3031 RMK A01 T00370030  RH  096%=      5-min Rain = 0
KSB1 090848Z 00000KT 04/03 A3031 RMK A01 T00370031  RH  096%=      5-min Rain = 0
KSB1 090849Z 23000KT 04/03 A3031 RMK A01 T00380033  RH  096%=      5-min Rain = 0
KSB1 090850Z 21000KT 04/03 A3031 RMK A01 T00390034  RH  096%=      5-min Rain = 0
KSB1 090851Z 00000KT 04/03 A3031 RMK A01 T00380033  RH  096%=      5-min Rain = 0
KSB1 090852Z 00000KT 04/03 A3031 RMK A01 T00390033  RH  096%=      5-min Rain = 0
KSB1 090853Z 00000KT 04/03 A3031 RMK A01 T00380032  RH  096%=      5-min Rain = 0
KSB1 090854Z 00000KT 04/03 A3031 RMK A01 T00380033  RH  096%=      5-min Rain = 0
KSB1 090855Z 00000KT 04/03 A3031 RMK A01 T00380033  RH  096%=      5-min Rain = 0
KSB1 090856Z 00000KT 04/03 A3031 RMK A01 T00390033  RH  096%=      5-min Rain = 0
KSB1 090857Z 00000KT 04/03 A3031 RMK A01 T00390034  RH  096%=      5-min Rain = 0
KSB1 090858Z 00000KT 04/04 A3031 RMK A01 T00400035  RH  097%=      5-min Rain = 0
KSB1 090859Z 00000KT 04/04 A3031 RMK A01 T00400035  RH  097%=      5-min Rain = 0
KSB1 090900Z 00000KT 04/04 A3031 RMK A01 T00400035  RH  097%=      5-min Rain = 0
KSB1 090901Z 00000KT 04/04 A3031 RMK A01 T00400035  RH  097%=      5-min Rain = 0
KSB1 090902Z 00000KT 04/04 A3031 RMK A01 T00400035  RH  097%=      5-min Rain = 0
KSB1 090903Z 00000KT 04/04 A3031 RMK A01 T00400035  RH  097%=      5-min Rain = 0
KSB1 090904Z 00000KT 04/04 A3031 RMK A01 T00410036  RH  097%=      5-min Rain = 0
KSB1 090905Z 00000KT 04/04 A3031 RMK A01 T00410036  RH  097%=      5-min Rain = 0
KSB1 090906Z 00000KT 04/04 A3031 RMK A01 T00410036  RH  097%=      5-min Rain = 0
KSB1 090907Z 18001KT 04/04 A3031 RMK A01 T00410037  RH  097%=      5-min Rain = 0
KSB1 090908Z 22002KT 04/04 A3031 RMK A01 T00410036  RH  097%=      5-min Rain = 0
KSB1 090909Z 22002KT 04/04 A3031 RMK A01 T00410035  RH  096%=      5-min Rain = 0
KSB1 090910Z 22001KT 04/04 A3031 RMK A01 T00400035  RH  096%=      5-min Rain = 0
KSB1 090911Z 22001KT 04/04 A3031 RMK A01 T00400035  RH  096%=      5-min Rain = 0
KSB1 090912Z 22001KT 04/04 A3031 RMK A01 T00400035  RH  097%=      5-min Rain = 0
KSB1 090913Z 22001KT 04/04 A3031 RMK A01 T00400035  RH  097%=      5-min Rain = 0
KSB1 090914Z 21002KT 04/04 A3031 RMK A01 T00400036  RH  097%=      5-min Rain = 0
KSB1 090915Z 21002KT 04/04 A3031 RMK A01 T00400036  RH  097%=      5-min Rain = 0
KSB1 090916Z 21002KT 04/04 A3031 RMK A01 T00400035  RH  097%=      5-min Rain = 0
KSB1 090917Z 21002KT 04/04 A3031 RMK A01 T00390035  RH  097%=      5-min Rain = 0
KSB1 090918Z 21002KT 04/03 A3031 RMK A01 T00380033  RH  097%=      5-min Rain = 0
KSB1 090919Z 20002KT 04/03 A3031 RMK A01 T00380033  RH  097%=      5-min Rain = 0
KSB1 090920Z 19002KT 04/03 A3031 RMK A01 T00370032  RH  097%=      5-min Rain = 0
KSB1 090921Z 20002KT 04/03 A3031 RMK A01 T00370032  RH  097%=      5-min Rain = 0
KSB1 090922Z 20002KT 04/03 A3031 RMK A01 T00360032  RH  097%=      5-min Rain = 0
KSB1 090923Z 20001KT 04/03 A3031 RMK A01 T00360031  RH  097%=      5-min Rain = 0
KSB1 090924Z 20001KT 04/03 A3031 RMK A01 T00360031  RH  097%=      5-min Rain = 0
KSB1 090925Z 21001KT 04/03 A3031 RMK A01 T00360032  RH  097%=      5-min Rain = 0
KSB1 090926Z 22001KT 04/03 A3031 RMK A01 T00360031  RH  097%=      5-min Rain = 0
KSB1 090927Z 21002KT 04/03 A3031 RMK A01 T00350031  RH  097%=      5-min Rain = 0
KSB1 090928Z 21002KT 04/03 A303 RMK A01 T00350031  RH  097%=      5-min Rain = 0
KSB1 090929Z 20002KT 04/03 A303 RMK A01 T00360032  RH  097%=      5-min Rain = 0
KSB1 090930Z 20002KT 04/03 A303 RMK A01 T00360033  RH  097%=      5-min Rain = 0
KSB1 090931Z 21002KT 04/03 A303 RMK A01 T00370033  RH  097%=      5-min Rain = 0
KSB1 090932Z 22002KT 04/03 A303 RMK A01 T00370033  RH  097%=      5-min Rain = 0
KSB1 090933Z 21002KT 04/03 A303 RMK A01 T00360033  RH  097%=      5-min Rain = 0
KSB1 090934Z 20003KT 04/03 A303 RMK A01 T00370034  RH  097%=      5-min Rain = 0
KSB1 090935Z 19003KT 04/03 A3031 RMK A01 T00380034  RH  097%=      5-min Rain = 0
KSB1 090936Z 20002KT 04/03 A3031 RMK A01 T00380034  RH  097%=      5-min Rain = 0
KSB1 090937Z 21002KT 04/03 A3031 RMK A01 T00380034  RH  097%=      5-min Rain = 0
KSB1 090938Z 22002KT 04/03 A3031 RMK A01 T00370033  RH  097%=      5-min Rain = 0
KSB1 090939Z 22001KT 04/03 A3031 RMK A01 T00370033  RH  097%=      5-min Rain = 0
KSB1 090940Z 22001KT 04/03 A3031 RMK A01 T00370033  RH  097%=      5-min Rain = 0
KSB1 090941Z 23001KT 04/03 A3031 RMK A01 T00370034  RH  097%=      5-min Rain = 0
KSB1 090942Z 26001KT 04/03 A3031 RMK A01 T00380034  RH  097%=      5-min Rain = 0
KSB1 090943Z 25001KT 04/03 A303 RMK A01 T00380034  RH  097%=      5-min Rain = 0
KSB1 090944Z 22001KT 04/04 A303 RMK A01 T00380035  RH  097%=      5-min Rain = 0
KSB1 090945Z 20001KT 04/04 A303 RMK A01 T00390036  RH  097%=      5-min Rain = 0
KSB1 090946Z 20001KT 04/04 A303 RMK A01 T00400037  RH  097%=      5-min Rain = 0
KSB1 090947Z 20001KT 04/04 A303 RMK A01 T00410037  RH  097%=      5-min Rain = 0
KSB1 090948Z 20001KT 04/04 A303 RMK A01 T00420038  RH  097%=      5-min Rain = 0
KSB1 090949Z 20001KT 04/04 A303 RMK A01 T00420038  RH  097%=      5-min Rain = 0
KSB1 090950Z 19001KT 04/04 A303 RMK A01 T00430039  RH  097%=      5-min Rain = 0
KSB1 090951Z 19000KT 04/04 A303 RMK A01 T00430038  RH  097%=      5-min Rain = 0
KSB1 090952Z 00000KT 04/04 A303 RMK A01 T00430039  RH  097%=      5-min Rain = 0
KSB1 090953Z 16001KT 04/04 A303 RMK A01 T00430038  RH  097%=      5-min Rain = 0
KSB1 090954Z 16000KT 04/04 A303 RMK A01 T00430039  RH  097%=      5-min Rain = 0
KSB1 090955Z 24001KT 04/04 A303 RMK A01 T00430039  RH  097%=      5-min Rain = 0
KSB1 090956Z 25001KT 04/04 A3031 RMK A01 T00440039  RH  097%=      5-min Rain = 0
KSB1 090957Z 27002KT 04/04 A303 RMK A01 T00440039  RH  097%=      5-min Rain = 0
KSB1 090958Z 27002KT 04/04 A303 RMK A01 T00440038  RH  096%=      5-min Rain = 0
KSB1 090959Z 27000KT 04/04 A303 RMK A01 T00440038  RH  096%=      5-min Rain = 0
KSB1 091000Z 00000KT 04/04 A3031 RMK A01 T00440038  RH  096%=      5-min Rain = 0
KSB1 091001Z 00000KT 04/04 A3031 RMK A01 T00440038  RH  096%=      5-min Rain = 0
KSB1 091002Z 00000KT 05/04 A3031 RMK A01 T00450039  RH  096%=      5-min Rain = 0
KSB1 091003Z 27000KT 05/04 A303 RMK A01 T00450038  RH  096%=      5-min Rain = 0
KSB1 091004Z 26001KT 05/04 A303 RMK A01 T00450039  RH  095%=      5-min Rain = 0
KSB1 091005Z 26001KT 05/04 A303 RMK A01 T00460039  RH  095%=      5-min Rain = 0
KSB1 091006Z 26001KT 05/04 A303 RMK A01 T00460039  RH  095%=      5-min Rain = 0
KSB1 091007Z 26000KT 05/04 A303 RMK A01 T00460038  RH  095%=      5-min Rain = 0
KSB1 091008Z 00000KT 05/04 A303 RMK A01 T00460038  RH  095%=      5-min Rain = 0
KSB1 091009Z 00000KT 05/04 A303 RMK A01 T00460038  RH  094%=      5-min Rain = 0
KSB1 091010Z 00000KT 05/04 A303 RMK A01 T00460038  RH  094%=      5-min Rain = 0
KSB1 091011Z 26000KT 05/04 A303 RMK A01 T00460038  RH  094%=      5-min Rain = 0
KSB1 091012Z 25001KT 05/04 A303 RMK A01 T00460038  RH  094%=      5-min Rain = 0
KSB1 091013Z 25001KT 05/04 A303 RMK A01 T00460038  RH  094%=      5-min Rain = 0
KSB1 091014Z 25001KT 05/04 A303 RMK A01 T00460037  RH  094%=      5-min Rain = 0
KSB1 091015Z 25001KT 05/04 A303 RMK A01 T00460037  RH  094%=      5-min Rain = 0
KSB1 091016Z 25000KT 05/04 A303 RMK A01 T00460037  RH  094%=      5-min Rain = 0
KSB1 091017Z 00000KT 05/04 A303 RMK A01 T00460037  RH  094%=      5-min Rain = 0
KSB1 091018Z 00000KT 05/04 A303 RMK A01 T00460037  RH  094%=      5-min Rain = 0
KSB1 091019Z 25001KT 05/04 A303 RMK A01 T00460037  RH  094%=      5-min Rain = 0
KSB1 091020Z 24001KT 05/04 A303 RMK A01 T00460037  RH  094%=      5-min Rain = 0
KSB1 091021Z 24001KT 05/04 A303 RMK A01 T00460037  RH  094%=      5-min Rain = 0
KSB1 091022Z 25002KT 05/04 A303 RMK A01 T00460036  RH  093%=      5-min Rain = 0
KSB1 091023Z 26003KT 05/04 A303 RMK A01 T00450035  RH  093%=      5-min Rain = 0
KSB1 091024Z 25003KT 04/03 A303 RMK A01 T00430033  RH  093%=      5-min Rain = 0
KSB1 091025Z 24003KT 04/03 A303 RMK A01 T00420032  RH  093%=      5-min Rain = 0
KSB1 091026Z 26003KT 04/03 A303 RMK A01 T00410031  RH  093%=      5-min Rain = 0
KSB1 091027Z 28003KT 04/03 A303 RMK A01 T00390029  RH  093%=      5-min Rain = 0
KSB1 091028Z 28003KT 04/03 A303 RMK A01 T00380028  RH  094%=      5-min Rain = 0
KSB1 091029Z 27003KT 04/03 A303 RMK A01 T00370028  RH  094%=      5-min Rain = 0
KSB1 091030Z 26003KT 04/03 A303 RMK A01 T00380030  RH  094%=      5-min Rain = 0
KSB1 091031Z 25003KT 04/03 A303 RMK A01 T00370029  RH  094%=      5-min Rain = 0
KSB1 091032Z 27002KT 04/03 A303 RMK A01 T00370029  RH  094%=      5-min Rain = 0
KSB1 091033Z 27002KT 04/03 A303 RMK A01 T00370030  RH  095%=      5-min Rain = 0
KSB1 091034Z 27002KT 04/03 A303 RMK A01 T00380031  RH  095%=      5-min Rain = 0
KSB1 091035Z 27003KT 04/03 A303 RMK A01 T00400033  RH  095%=      5-min Rain = 0
KSB1 091036Z 27003KT 04/03 A303 RMK A01 T00400033  RH  095%=      5-min Rain = 0
KSB1 091037Z 28002KT 04/03 A303 RMK A01 T00400033  RH  095%=      5-min Rain = 0
KSB1 091038Z 28001KT 04/03 A303 RMK A01 T00410033  RH  095%=      5-min Rain = 0
KSB1 091039Z 28001KT 04/03 A303 RMK A01 T00410034  RH  095%=      5-min Rain = 0
KSB1 091040Z 25002KT 04/03 A303 RMK A01 T00420034  RH  095%=      5-min Rain = 0
KSB1 091041Z 26003KT 04/04 A303 RMK A01 T00430035  RH  095%=      5-min Rain = 0
KSB1 091042Z 26002KT 04/04 A303 RMK A01 T00430035  RH  095%=      5-min Rain = 0
KSB1 091043Z 27002KT 04/04 A303 RMK A01 T00430035  RH  094%=      5-min Rain = 0
KSB1 091044Z 27002KT 04/04 A303 RMK A01 T00430035  RH  094%=      5-min Rain = 0
KSB1 091045Z 27001KT 04/03 A303 RMK A01 T00430034  RH  094%=      5-min Rain = 0
KSB1 091046Z 27001KT 04/04 A303 RMK A01 T00430035  RH  094%=      5-min Rain = 0
KSB1 091047Z 27001KT 04/04 A303 RMK A01 T00440036  RH  094%=      5-min Rain = 0
KSB1 091048Z 27001KT 05/04 A303 RMK A01 T00450036  RH  094%=      5-min Rain = 0
KSB1 091049Z 27001KT 05/04 A303 RMK A01 T00450037  RH  094%=      5-min Rain = 0
KSB1 091050Z 27000KT 05/04 A303 RMK A01 T00450036  RH  094%=      5-min Rain = 0
KSB1 091051Z 00000KT 05/04 A303 RMK A01 T00460037  RH  094%=      5-min Rain = 0
KSB1 091052Z 27000KT 05/04 A303 RMK A01 T00460037  RH  094%=      5-min Rain = 0
KSB1 091053Z 27001KT 05/04 A303 RMK A01 T00470038  RH  094%=      5-min Rain = 0
KSB1 091054Z 27001KT 05/04 A303 RMK A01 T00470038  RH  094%=      5-min Rain = 0
KSB1 091055Z 25002KT 05/04 A303 RMK A01 T00480038  RH  093%=      5-min Rain = 0
KSB1 091056Z 26002KT 05/04 A303 RMK A01 T00470037  RH  093%=      5-min Rain = 0
KSB1 091057Z 26002KT 05/04 A303 RMK A01 T00460035  RH  093%=      5-min Rain = 0
KSB1 091058Z 23001KT 05/04 A303 RMK A01 T00450035  RH  093%=      5-min Rain = 0
KSB1 091059Z 23001KT 05/03 A303 RMK A01 T00450034  RH  093%=      5-min Rain = 0
KSB1 091100Z 24001KT 05/03 A303 RMK A01 T00450034  RH  093%=      5-min Rain = 0
KSB1 091101Z 27001KT 04/03 A303 RMK A01 T00440034  RH  093%=      5-min Rain = 0
KSB1 091102Z 26001KT 04/03 A303 RMK A01 T00440034  RH  093%=      5-min Rain = 0
KSB1 091103Z 25002KT 04/03 A303 RMK A01 T00440034  RH  093%=      5-min Rain = 0
KSB1 091104Z 25002KT 04/03 A303 RMK A01 T00440034  RH  093%=      5-min Rain = 0
KSB1 091105Z 24002KT 04/03 A303 RMK A01 T00440034  RH  093%=      5-min Rain = 0
KSB1 091106Z 24000KT 04/03 A303 RMK A01 T00440034  RH  094%=      5-min Rain = 0
KSB1 091107Z 22000KT 04/04 A303 RMK A01 T00440035  RH  094%=      5-min Rain = 0
KSB1 091108Z 22002KT 05/04 A303 RMK A01 T00450035  RH  094%=      5-min Rain = 0
KSB1 091109Z 22002KT 05/04 A303 RMK A01 T00450035  RH  094%=      5-min Rain = 0
KSB1 091110Z 22002KT 04/04 A303 RMK A01 T00440035  RH  094%=      5-min Rain = 0
KSB1 091111Z 23002KT 04/03 A303 RMK A01 T00440034  RH  093%=      5-min Rain = 0
KSB1 091112Z 25001KT 04/03 A303 RMK A01 T00440034  RH  093%=      5-min Rain = 0
KSB1 091113Z 25001KT 04/03 A303 RMK A01 T00430034  RH  093%=      5-min Rain = 0
KSB1 091114Z 25002KT 04/03 A303 RMK A01 T00440034  RH  094%=      5-min Rain = 0
KSB1 091115Z 24002KT 04/04 A303 RMK A01 T00440035  RH  094%=      5-min Rain = 0
KSB1 091116Z 23002KT 04/04 A303 RMK A01 T00440035  RH  094%=      5-min Rain = 0
KSB1 091117Z 23002KT 04/03 A303 RMK A01 T00440034  RH  094%=      5-min Rain = 0
KSB1 091118Z 24002KT 04/03 A303 RMK A01 T00440034  RH  094%=      5-min Rain = 0
KSB1 091119Z 24003KT 04/04 A303 RMK A01 T00440035  RH  094%=      5-min Rain = 0
KSB1 091120Z 23002KT 04/03 A303 RMK A01 T00430034  RH  094%=      5-min Rain = 0
KSB1 091121Z 22001KT 04/03 A303 RMK A01 T00410030  RH  093%=      5-min Rain = 0
KSB1 091122Z 25002KT 04/03 A303 RMK A01 T00390029  RH  093%=      5-min Rain = 0
KSB1 091123Z 26002KT 04/03 A303 RMK A01 T00390030  RH  094%=      5-min Rain = 0
KSB1 091124Z 26002KT 04/03 A3031 RMK A01 T00390030  RH  094%=      5-min Rain = 0
KSB1 091125Z 26002KT 04/03 A3031 RMK A01 T00380029  RH  094%=      5-min Rain = 0
KSB1 091126Z 27001KT 04/03 A3031 RMK A01 T00390030  RH  094%=      5-min Rain = 0
KSB1 091127Z 34002KT 04/03 A3031 RMK A01 T00380029  RH  094%=      5-min Rain = 0
KSB1 091128Z 03002KT 04/03 A3031 RMK A01 T00360026  RH  093%=      5-min Rain = 0
KSB1 091129Z 03002KT 03/02 A3031 RMK A01 T00340024  RH  093%=      5-min Rain = 0
KSB1 091130Z 01001KT 03/02 A3031 RMK A01 T00320023  RH  094%=      5-min Rain = 0
KSB1 091131Z 04001KT 03/02 A3031 RMK A01 T00330024  RH  094%=      5-min Rain = 0
KSB1 091132Z 03001KT 04/03 A3031 RMK A01 T00350027  RH  095%=      5-min Rain = 0
KSB1 091133Z 02000KT 04/03 A3031 RMK A01 T00360028  RH  095%=      5-min Rain = 0
KSB1 091134Z 00000KT 04/03 A3031 RMK A01 T00360029  RH  095%=      5-min Rain = 0
KSB1 091135Z 02000KT 04/03 A3031 RMK A01 T00360029  RH  095%=      5-min Rain = 0
KSB1 091136Z 00000KT 04/03 A3031 RMK A01 T00360029  RH  095%=      5-min Rain = 0
KSB1 091137Z 00000KT 04/03 A3031 RMK A01 T00360029  RH  095%=      5-min Rain = 0
KSB1 091138Z 00000KT 04/03 A3031 RMK A01 T00360029  RH  095%=      5-min Rain = 0
KSB1 091139Z 00000KT 04/03 A3031 RMK A01 T00360029  RH  095%=      5-min Rain = 0
KSB1 091140Z 22000KT 04/03 A3031 RMK A01 T00370030  RH  095%=      5-min Rain = 0
KSB1 091141Z 23000KT 04/03 A3031 RMK A01 T00380031  RH  096%=      5-min Rain = 0
KSB1 091142Z 24001KT 04/03 A3031 RMK A01 T00380031  RH  095%=      5-min Rain = 0
KSB1 091143Z 24002KT 04/03 A3031 RMK A01 T00370030  RH  095%=      5-min Rain = 0
KSB1 091144Z 25002KT 04/03 A3031 RMK A01 T00370030  RH  095%=      5-min Rain = 0
KSB1 091145Z 24002KT 04/03 A3031 RMK A01 T00380031  RH  095%=      5-min Rain = 0
KSB1 091146Z 23002KT 04/03 A3031 RMK A01 T00390033  RH  096%=      5-min Rain = 0
KSB1 091147Z 23002KT 04/03 A3031 RMK A01 T00390033  RH  095%=      5-min Rain = 0
KSB1 091148Z 23002KT 04/03 A3031 RMK A01 T00390033  RH  095%=      5-min Rain = 0
KSB1 091149Z 23003KT 04/03 A3031 RMK A01 T00400033  RH  095%=      5-min Rain = 0
KSB1 091150Z 23003KT 04/03 A3031 RMK A01 T00410034  RH  095%=      5-min Rain = 0
KSB1 091151Z 22003KT 04/03 A3031 RMK A01 T00410034  RH  095%=      5-min Rain = 0
KSB1 091152Z 22003KT 04/03 A3031 RMK A01 T00410033  RH  095%=      5-min Rain = 0
KSB1 091153Z 23003KT 04/03 A3031 RMK A01 T00410033  RH  095%=      5-min Rain = 0
KSB1 091154Z 24003KT 04/03 A3031 RMK A01 T00400032  RH  095%=      5-min Rain = 0
KSB1 091155Z 24003KT 04/03 A3031 RMK A01 T00400032  RH  095%=      5-min Rain = 0
KSB1 091156Z 24003KT 04/03 A3031 RMK A01 T00390031  RH  094%=      5-min Rain = 0
KSB1 091157Z 25003KT 04/03 A3031 RMK A01 T00380030  RH  094%=      5-min Rain = 0
KSB1 091158Z 25002KT 04/03 A3031 RMK A01 T00380030  RH  095%=      5-min Rain = 0
KSB1 091159Z 24002KT 04/03 A3031 RMK A01 T00380031  RH  095%=      5-min Rain = 0
KSB1 091200Z 25002KT 04/03 A3032 RMK A01 T00390031  RH  095%=      5-min Rain = 0
KSB1 091201Z 26002KT 04/03 A3032 RMK A01 T00390032  RH  095%=      5-min Rain = 0
KSB1 091202Z 25002KT 04/03 A3032 RMK A01 T00400033  RH  095%=      5-min Rain = 0
KSB1 091203Z 26003KT 04/03 A3032 RMK A01 T00400033  RH  095%=      5-min Rain = 0
KSB1 091204Z 27003KT 04/03 A3032 RMK A01 T00400033  RH  095%=      5-min Rain = 0
KSB1 091205Z 26003KT 04/03 A3032 RMK A01 T00400033  RH  095%=      5-min Rain = 0
KSB1 091206Z 26003KT 04/03 A3032 RMK A01 T00390032  RH  095%=      5-min Rain = 0
KSB1 091207Z 26003KT 04/03 A3032 RMK A01 T00390031  RH  095%=      5-min Rain = 0
KSB1 091208Z 27003KT 04/03 A3032 RMK A01 T00380031  RH  095%=      5-min Rain = 0
KSB1 091209Z 27003KT 04/03 A3032 RMK A01 T00390031  RH  095%=      5-min Rain = 0
KSB1 091210Z 26002KT 04/03 A3032 RMK A01 T00390031  RH  095%=      5-min Rain = 0
KSB1 091211Z 26003KT 04/03 A3032 RMK A01 T00400033  RH  095%=      5-min Rain = 0
KSB1 091212Z 27003KT 04/03 A3032 RMK A01 T00400033  RH  095%=      5-min Rain = 0
KSB1 091213Z 27002KT 04/03 A3032 RMK A01 T00400033  RH  095%=      5-min Rain = 0
KSB1 091214Z 27002KT 04/03 A3032 RMK A01 T00400033  RH  095%=      5-min Rain = 0
KSB1 091215Z 28002KT 04/03 A3032 RMK A01 T00390032  RH  095%=      5-min Rain = 0
KSB1 091216Z 28002KT 04/03 A3032 RMK A01 T00360026  RH  093%=      5-min Rain = 0
KSB1 091217Z 28001KT 03/02 A3032 RMK A01 T00340024  RH  093%=      5-min Rain = 0
KSB1 091218Z 25001KT 03/03 A3032 RMK A01 T00330025  RH  094%=      5-min Rain = 0
KSB1 091219Z 25001KT 04/03 A3032 RMK A01 T00360028  RH  095%=      5-min Rain = 0
KSB1 091220Z 26001KT 04/03 A3032 RMK A01 T00380032  RH  095%=      5-min Rain = 0
KSB1 091221Z 30001KT 04/03 A3032 RMK A01 T00380031  RH  095%=      5-min Rain = 0
KSB1 091222Z 06000KT 03/02 A3032 RMK A01 T00310019  RH  092%=      5-min Rain = 0
KSB1 091223Z 28001KT 02/01 A3033 RMK A01 T00220009  RH  091%=      5-min Rain = 0
KSB1 091224Z 28002KT 02/01 A3032 RMK A01 T00210010  RH  093%=      5-min Rain = 0
KSB1 091225Z 29002KT 02/02 A3033 RMK A01 T00240017  RH  095%=      5-min Rain = 0
KSB1 091226Z 30002KT 03/02 A3033 RMK A01 T00250017  RH  095%=      5-min Rain = 0
KSB1 091227Z 29002KT 03/02 A3033 RMK A01 T00250018  RH  095%=      5-min Rain = 0
KSB1 091228Z 28002KT 03/02 A3033 RMK A01 T00280022  RH  096%=      5-min Rain = 0
KSB1 091229Z 31002KT 03/03 A3033 RMK A01 T00310026  RH  096%=      5-min Rain = 0
KSB1 091230Z 35002KT 03/03 A3033 RMK A01 T00330028  RH  097%=      5-min Rain = 0
KSB1 091231Z 00003KT 03/03 A3033 RMK A01 T00310025  RH  096%=      5-min Rain = 0
KSB1 091232Z 35001KT 03/02 A3033 RMK A01 T00270021  RH  095%=      5-min Rain = 0
KSB1 091233Z 00002KT 03/02 A3033 RMK A01 T00280022  RH  096%=      5-min Rain = 0
KSB1 091234Z 36003KT 03/03 A3033 RMK A01 T00320027  RH  096%=      5-min Rain = 0
KSB1 091235Z 36003KT 03/02 A3033 RMK A01 T00300024  RH  096%=      5-min Rain = 0
KSB1 091236Z 00003KT 02/01 A3033 RMK A01 T00210012  RH  094%=      5-min Rain = 0
KSB1 091237Z 00003KT 02/01 A3033 RMK A01 T00150005  RH  093%=      5-min Rain = 0
KSB1 091238Z 02005KT 01/00 A3033 RMK A01 T00130004  RH  094%=      5-min Rain = 0
KSB1 091239Z 00005KT 01/00 A3033 RMK A01 T00110002  RH  094%=      5-min Rain = 0
KSB1 091240Z 34004KT 01/00 A3033 RMK A01 T00100002  RH  095%=      5-min Rain = 0
KSB1 091241Z 33004KT 01/00 A3033 RMK A01 T00100003  RH  095%=      5-min Rain = 0
KSB1 091242Z 33004KT 01/01 A3033 RMK A01 T00100005  RH  096%=      5-min Rain = 0
KSB1 091243Z 32002KT 01/01 A3033 RMK A01 T00120007  RH  096%=      5-min Rain = 0
KSB1 091244Z 30001KT 02/01 A3033 RMK A01 T00150011  RH  097%=      5-min Rain = 0
KSB1 091245Z 30001KT 02/02 A3033 RMK A01 T00190015  RH  097%=      5-min Rain = 0
KSB1 091246Z 30001KT 02/02 A3033 RMK A01 T00210017  RH  098%=      5-min Rain = 0
KSB1 091247Z 29001KT 02/01 A3033 RMK A01 T00180014  RH  097%=      5-min Rain = 0
KSB1 091248Z 28001KT 02/01 A3033 RMK A01 T00150009  RH  096%=      5-min Rain = 0
KSB1 091249Z 28001KT 02/02 A3033 RMK A01 T00200017  RH  098%=      5-min Rain = 0
KSB1 091250Z 28001KT 03/02 A3033 RMK A01 T00260023  RH  098%=      5-min Rain = 0
KSB1 091251Z 29001KT 03/02 A3033 RMK A01 T00260023  RH  098%=      5-min Rain = 0
KSB1 091252Z 32001KT 03/03 A3033 RMK A01 T00300026  RH  098%=      5-min Rain = 0
KSB1 091253Z 03002KT 03/02 A3033 RMK A01 T00260022  RH  097%=      5-min Rain = 0
KSB1 091254Z 01004KT 02/02 A3034 RMK A01 T00200015  RH  096%=      5-min Rain = 0
KSB1 091255Z 01005KT 02/01 A3034 RMK A01 T00160010  RH  096%=      5-min Rain = 0
KSB1 091256Z 02004KT 01/01 A3034 RMK A01 T00120007  RH  096%=      5-min Rain = 0
KSB1 091257Z 02004KT 01/01 A3034 RMK A01 T00110006  RH  097%=      5-min Rain = 0
KSB1 091258Z 01004KT 01/01 A3034 RMK A01 T00100006  RH  097%=      5-min Rain = 0
KSB1 091259Z 00005KT 01/01 A3034 RMK A01 T00100006  RH  097%=      5-min Rain = 0
KSB1 091300Z 36004KT 01/01 A3034 RMK A01 T00100006  RH  097%=      5-min Rain = 0
KSB1 091301Z 35004KT 01/01 A3034 RMK A01 T00110008  RH  097%=      5-min Rain = 0
KSB1 091302Z 35004KT 01/01 A3034 RMK A01 T00110008  RH  097%=      5-min Rain = 0
KSB1 091303Z 34004KT 01/01 A3034 RMK A01 T00120008  RH  098%=      5-min Rain = 0
KSB1 091304Z 31002KT 01/01 A3034 RMK A01 T00130010  RH  098%=      5-min Rain = 0
KSB1 091305Z 29001KT 02/01 A3034 RMK A01 T00170014  RH  098%=      5-min Rain = 0
KSB1 091306Z 26001KT 02/02 A3034 RMK A01 T00200017  RH  098%=      5-min Rain = 0
KSB1 091307Z 25003KT 02/02 A3034 RMK A01 T00220019  RH  098%=      5-min Rain = 0
KSB1 091308Z 25003KT 02/02 A3034 RMK A01 T00230021  RH  098%=      5-min Rain = 0
KSB1 091309Z 25004KT 02/02 A3034 RMK A01 T00220019  RH  098%=      5-min Rain = 0
KSB1 091310Z 24003KT 02/02 A3034 RMK A01 T00200017  RH  098%=      5-min Rain = 0
KSB1 091311Z 24003KT 02/02 A3034 RMK A01 T00200017  RH  098%=      5-min Rain = 0
KSB1 091312Z 04003KT 02/01 A3034 RMK A01 T00170013  RH  098%=      5-min Rain = 0
KSB1 091313Z 01005KT 01/01 A3034 RMK A01 T00140011  RH  097%=      5-min Rain = 0
KSB1 091314Z 02004KT 02/02 A3034 RMK A01 T00170015  RH  098%=      5-min Rain = 0
KSB1 091315Z 01003KT 02/02 A3034 RMK A01 T00210018  RH  098%=      5-min Rain = 0
KSB1 091316Z 00002KT 02/02 A3034 RMK A01 T00220020  RH  098%=      5-min Rain = 0
KSB1 091317Z 36002KT 02/02 A3034 RMK A01 T00230020  RH  098%=      5-min Rain = 0
KSB1 091318Z 35003KT 02/02 A3034 RMK A01 T00230020  RH  098%=      5-min Rain = 0
KSB1 091319Z 35002KT 02/02 A3034 RMK A01 T00220019  RH  098%=      5-min Rain = 0
KSB1 091320Z 34003KT 02/02 A3034 RMK A01 T00230020  RH  098%=      5-min Rain = 0
KSB1 091321Z 34004KT 02/02 A3034 RMK A01 T00240021  RH  098%=      5-min Rain = 0
KSB1 091322Z 34004KT 03/02 A3034 RMK A01 T00250022  RH  098%=      5-min Rain = 0
KSB1 091323Z 34004KT 03/02 A3034 RMK A01 T00260023  RH  098%=      5-min Rain = 0
KSB1 091324Z 35004KT 03/02 A3034 RMK A01 T00270024  RH  098%=      5-min Rain = 0
KSB1 091325Z 36003KT 03/03 A3034 RMK A01 T00280025  RH  098%=      5-min Rain = 0
KSB1 091326Z 00002KT 03/03 A3035 RMK A01 T00290026  RH  098%=      5-min Rain = 0
KSB1 091327Z 36003KT 03/03 A3035 RMK A01 T00300027  RH  098%=      5-min Rain = 0
KSB1 091328Z 35003KT 03/03 A3035 RMK A01 T00300027  RH  098%=      5-min Rain = 0
KSB1 091329Z 00002KT 03/03 A3035 RMK A01 T00300027  RH  098%=      5-min Rain = 0
KSB1 091330Z 03003KT 03/03 A3035 RMK A01 T00310028  RH  098%=      5-min Rain = 0
KSB1 091331Z 04003KT 03/03 A3035 RMK A01 T00330030  RH  098%=      5-min Rain = 0
KSB1 091332Z 03004KT 03/03 A3035 RMK A01 T00320029  RH  098%=      5-min Rain = 0
KSB1 091333Z 03004KT 03/03 A3035 RMK A01 T00300027  RH  098%=      5-min Rain = 0
KSB1 091334Z 05003KT 03/02 A3035 RMK A01 T00260022  RH  097%=      5-min Rain = 0
KSB1 091335Z 06004KT 02/02 A3035 RMK A01 T00210016  RH  096%=      5-min Rain = 0
KSB1 091336Z 06004KT 02/01 A3035 RMK A01 T00190014  RH  096%=      5-min Rain = 0
KSB1 091337Z 06005KT 02/02 A3035 RMK A01 T00200015  RH  097%=      5-min Rain = 0
KSB1 091338Z 06004KT 02/02 A3035 RMK A01 T00200016  RH  097%=      5-min Rain = 0
KSB1 091339Z 05005KT 02/02 A3035 RMK A01 T00200016  RH  097%=      5-min Rain = 0
KSB1 091340Z 05004KT 02/02 A3035 RMK A01 T00190015  RH  097%=      5-min Rain = 0
KSB1 091341Z 05004KT 02/01 A3035 RMK A01 T00190014  RH  097%=      5-min Rain = 0
KSB1 091342Z 03004KT 02/02 A3035 RMK A01 T00190015  RH  097%=      5-min Rain = 0
KSB1 091343Z 02004KT 02/02 A3035 RMK A01 T00190015  RH  097%=      5-min Rain = 0
KSB1 091344Z 02003KT 02/02 A3035 RMK A01 T00200016  RH  097%=      5-min Rain = 0
KSB1 091345Z 01004KT 02/02 A3035 RMK A01 T00200017  RH  097%=      5-min Rain = 0
KSB1 091346Z 02004KT 02/02 A3035 RMK A01 T00210017  RH  097%=      5-min Rain = 0
KSB1 091347Z 02004KT 02/02 A3035 RMK A01 T00220018  RH  098%=      5-min Rain = 0
KSB1 091348Z 02004KT 02/02 A3035 RMK A01 T00230020  RH  098%=      5-min Rain = 0
KSB1 091349Z 02005KT 02/02 A3035 RMK A01 T00230019  RH  098%=      5-min Rain = 0
KSB1 091350Z 02005KT 02/02 A3036 RMK A01 T00230020  RH  098%=      5-min Rain = 0
KSB1 091351Z 02004KT 02/02 A3036 RMK A01 T00230020  RH  098%=      5-min Rain = 0
KSB1 091352Z 01005KT 02/02 A3036 RMK A01 T00220018  RH  098%=      5-min Rain = 0
KSB1 091353Z 01005KT 02/02 A3036 RMK A01 T00210017  RH  098%=      5-min Rain = 0
KSB1 091354Z 01005KT 02/02 A3036 RMK A01 T00210017  RH  098%=      5-min Rain = 0
KSB1 091355Z 00004KT 02/02 A3036 RMK A01 T00200017  RH  098%=      5-min Rain = 0
KSB1 091356Z 01004KT 02/02 A3036 RMK A01 T00200017  RH  098%=      5-min Rain = 0
KSB1 091357Z 36005KT 02/02 A3036 RMK A01 T00200017  RH  098%=      5-min Rain = 0
KSB1 091358Z 36004KT 02/02 A3036 RMK A01 T00200017  RH  098%=      5-min Rain = 0
KSB1 091359Z 00004KT 02/02 A3036 RMK A01 T00210017  RH  098%=      5-min Rain = 0
KSB1 091400Z 36004KT 02/02 A3036 RMK A01 T00210018  RH  098%=      5-min Rain = 0
KSB1 091401Z 36005KT 02/02 A3036 RMK A01 T00220019  RH  098%=      5-min Rain = 0
KSB1 091402Z 35005KT 02/02 A3036 RMK A01 T00220019  RH  098%=      5-min Rain = 0
KSB1 091403Z 34005KT 02/02 A3036 RMK A01 T00220020  RH  098%=      5-min Rain = 0
KSB1 091404Z 35005KT 02/02 A3036 RMK A01 T00230020  RH  098%=      5-min Rain = 0
KSB1 091405Z 34005KT 02/02 A3036 RMK A01 T00230020  RH  098%=      5-min Rain = 0
KSB1 091406Z 35005KT 02/02 A3036 RMK A01 T00230020  RH  098%=      5-min Rain = 0
KSB1 091407Z 36004KT 02/02 A3036 RMK A01 T00220019  RH  098%=      5-min Rain = 0
KSB1 091408Z 36004KT 02/02 A3036 RMK A01 T00220020  RH  098%=      5-min Rain = 0
KSB1 091409Z 01003KT 02/02 A3036 RMK A01 T00230021  RH  098%=      5-min Rain = 0
KSB1 091410Z 36004KT 03/02 A3036 RMK A01 T00250022  RH  098%=      5-min Rain = 0
KSB1 091411Z 34004KT 03/02 A3036 RMK A01 T00250022  RH  098%=      5-min Rain = 0
KSB1 091412Z 36004KT 03/02 A3036 RMK A01 T00250022  RH  098%=      5-min Rain = 0
KSB1 091413Z 36004KT 03/02 A3036 RMK A01 T00260023  RH  098%=      5-min Rain = 0
KSB1 091414Z 34003KT 03/03 A3036 RMK A01 T00270025  RH  098%=      5-min Rain = 0
KSB1 091415Z 36003KT 03/03 A3036 RMK A01 T00280025  RH  098%=      5-min Rain = 0
KSB1 091416Z 01003KT 03/03 A3036 RMK A01 T00280025  RH  098%=      5-min Rain = 0
KSB1 091417Z 36002KT 03/03 A3036 RMK A01 T00280026  RH  098%=      5-min Rain = 0
KSB1 091418Z 36002KT 03/02 A3036 RMK A01 T00270024  RH  098%=      5-min Rain = 0
KSB1 091419Z 00001KT 03/02 A3036 RMK A01 T00260023  RH  098%=      5-min Rain = 0
KSB1 091420Z 35002KT 03/02 A3036 RMK A01 T00260023  RH  098%=      5-min Rain = 0
KSB1 091421Z 35002KT 03/03 A3036 RMK A01 T00270025  RH  098%=      5-min Rain = 0
KSB1 091422Z 00002KT 03/03 A3036 RMK A01 T00290026  RH  098%=      5-min Rain = 0
KSB1 091423Z 36001KT 03/03 A3036 RMK A01 T00300027  RH  098%=      5-min Rain = 0
KSB1 091424Z 00002KT 03/03 A3036 RMK A01 T00310028  RH  098%=      5-min Rain = 0
KSB1 091425Z 00002KT 03/03 A3036 RMK A01 T00320029  RH  098%=      5-min Rain = 0
KSB1 091426Z 01002KT 03/03 A3036 RMK A01 T00320029  RH  098%=      5-min Rain = 0
KSB1 091427Z 01002KT 03/03 A3037 RMK A01 T00330030  RH  098%=      5-min Rain = 0
KSB1 091428Z 01003KT 03/03 A3037 RMK A01 T00330030  RH  098%=      5-min Rain = 0
KSB1 091429Z 02003KT 03/03 A3037 RMK A01 T00330030  RH  098%=      5-min Rain = 0
KSB1 091430Z 36002KT 03/03 A3037 RMK A01 T00330030  RH  098%=      5-min Rain = 0
KSB1 091431Z 35001KT 03/03 A3037 RMK A01 T00330030  RH  098%=      5-min Rain = 0
KSB1 091432Z 33001KT 03/03 A3037 RMK A01 T00330030  RH  098%=      5-min Rain = 0
KSB1 091433Z 32001KT 03/03 A3037 RMK A01 T00330030  RH  098%=      5-min Rain = 0
KSB1 091434Z 31000KT 03/03 A3037 RMK A01 T00300027  RH  097%=      5-min Rain = 0
KSB1 091435Z 27001KT 03/03 A3037 RMK A01 T00300026  RH  097%=      5-min Rain = 0
KSB1 091436Z 28002KT 03/03 A3037 RMK A01 T00290025  RH  097%=      5-min Rain = 0
KSB1 091437Z 26003KT 03/02 A3037 RMK A01 T00280024  RH  097%=      5-min Rain = 0
KSB1 091438Z 27003KT 03/02 A3037 RMK A01 T00270023  RH  097%=      5-min Rain = 0
KSB1 091439Z 27003KT 03/02 A3037 RMK A01 T00260022  RH  097%=      5-min Rain = 0
KSB1 091440Z 26002KT 03/02 A3037 RMK A01 T00260022  RH  097%=      5-min Rain = 0
KSB1 091441Z 27003KT 03/02 A3037 RMK A01 T00260021  RH  097%=      5-min Rain = 0
KSB1 091442Z 26002KT 03/02 A3037 RMK A01 T00260022  RH  097%=      5-min Rain = 0
KSB1 091443Z 27003KT 03/02 A3037 RMK A01 T00260022  RH  097%=      5-min Rain = 0
KSB1 091444Z 27003KT 03/02 A3037 RMK A01 T00270023  RH  097%=      5-min Rain = 0
KSB1 091445Z 27003KT 03/03 A3037 RMK A01 T00290025  RH  097%=      5-min Rain = 0
KSB1 091446Z 27004KT 03/03 A3037 RMK A01 T00310027  RH  097%=      5-min Rain = 0
KSB1 091447Z 26004KT 03/03 A3037 RMK A01 T00330028  RH  097%=      5-min Rain = 0
KSB1 091448Z 26005KT 03/03 A3037 RMK A01 T00340030  RH  097%=      5-min Rain = 0
KSB1 091449Z 27004KT 04/03 A3037 RMK A01 T00360031  RH  097%=      5-min Rain = 0
KSB1 091450Z 25005KT 04/03 A3037 RMK A01 T00370032  RH  097%=      5-min Rain = 0
KSB1 091451Z 25004KT 04/03 A3037 RMK A01 T00380034  RH  097%=      5-min Rain = 0
KSB1 091452Z 25004KT 04/04 A3037 RMK A01 T00390035  RH  097%=      5-min Rain = 0
KSB1 091453Z 25004KT 04/04 A3037 RMK A01 T00410036  RH  097%=      5-min Rain = 0
KSB1 091454Z 25003KT 04/04 A3037 RMK A01 T00420038  RH  097%=      5-min Rain = 0
KSB1 091455Z 26001KT 04/04 A3037 RMK A01 T00440039  RH  097%=      5-min Rain = 0
KSB1 091456Z 26002KT 05/04 A3037 RMK A01 T00450040  RH  097%=      5-min Rain = 0
KSB1 091457Z 26002KT 05/04 A3037 RMK A01 T00460041  RH  097%=      5-min Rain = 0
KSB1 091458Z 26003KT 05/04 A3037 RMK A01 T00460041  RH  096%=      5-min Rain = 0
KSB1 091459Z 26003KT 05/04 A3037 RMK A01 T00470041  RH  096%=      5-min Rain = 0
KSB1 091500Z 25003KT 05/04 A3037 RMK A01 T00470042  RH  096%=      5-min Rain = 0
KSB1 091501Z 23002KT 05/04 A3037 RMK A01 T00460039  RH  096%=      5-min Rain = 0
KSB1 091502Z 19002KT 04/03 A3037 RMK A01 T00390030  RH  094%=      5-min Rain = 0
KSB1 091503Z 20001KT 04/03 A3037 RMK A01 T00370027  RH  093%=      5-min Rain = 0
KSB1 091504Z 20001KT 04/03 A3037 RMK A01 T00370028  RH  094%=      5-min Rain = 0
KSB1 091505Z 20001KT 04/03 A3037 RMK A01 T00380030  RH  095%=      5-min Rain = 0
KSB1 091506Z 18001KT 04/03 A3037 RMK A01 T00390032  RH  095%=      5-min Rain = 0
KSB1 091507Z 22001KT 04/03 A3037 RMK A01 T00410034  RH  095%=      5-min Rain = 0
KSB1 091508Z 22001KT 04/04 A3037 RMK A01 T00420035  RH  095%=      5-min Rain = 0
KSB1 091509Z 21001KT 04/04 A3037 RMK A01 T00430036  RH  095%=      5-min Rain = 0
KSB1 091510Z 19001KT 04/04 A3037 RMK A01 T00430036  RH  095%=      5-min Rain = 0
KSB1 091511Z 19001KT 04/04 A3037 RMK A01 T00430036  RH  095%=      5-min Rain = 0
KSB1 091512Z 21001KT 04/04 A3037 RMK A01 T00440037  RH  095%=      5-min Rain = 0
KSB1 091513Z 22001KT 05/04 A3037 RMK A01 T00450038  RH  095%=      5-min Rain = 0
KSB1 091514Z 25001KT 05/04 A3037 RMK A01 T00460039  RH  095%=      5-min Rain = 0
KSB1 091515Z 23002KT 05/04 A3037 RMK A01 T00460039  RH  095%=      5-min Rain = 0
KSB1 091516Z 22002KT 05/04 A3037 RMK A01 T00470040  RH  095%=      5-min Rain = 0
KSB1 091517Z 17002KT 05/04 A3037 RMK A01 T00470040  RH  095%=      5-min Rain = 0
KSB1 091518Z 17002KT 05/04 A3037 RMK A01 T00480041  RH  095%=      5-min Rain = 0
KSB1 091519Z 22003KT 05/04 A3037 RMK A01 T00500043  RH  095%=      5-min Rain = 0
KSB1 091520Z 25003KT 05/04 A3037 RMK A01 T00510044  RH  096%=      5-min Rain = 0
KSB1 091521Z 25004KT 05/05 A3037 RMK A01 T00540048  RH  096%=      5-min Rain = 0
KSB1 091522Z 25005KT 06/05 A3037 RMK A01 T00590053  RH  096%=      5-min Rain = 0
KSB1 091523Z 25006KT 06/06 A3037 RMK A01 T00610055  RH  096%=      5-min Rain = 0
KSB1 091524Z 25007KT 06/06 A3037 RMK A01 T00620056  RH  096%=      5-min Rain = 0
KSB1 091525Z 25006KT 06/06 A3037 RMK A01 T00640056  RH  095%=      5-min Rain = 0
KSB1 091526Z 26005KT 07/06 A3037 RMK A01 T00650057  RH  094%=      5-min Rain = 0
KSB1 091527Z 26005KT 07/06 A3037 RMK A01 T00660057  RH  094%=      5-min Rain = 0
KSB1 091528Z 26005KT 07/06 A3037 RMK A01 T00670056  RH  093%=      5-min Rain = 0
KSB1 091529Z 27006KT 07/06 A3037 RMK A01 T00670056  RH  092%=      5-min Rain = 0
KSB1 091530Z 27006KT 07/06 A3037 RMK A01 T00690056  RH  092%=      5-min Rain = 0
KSB1 091531Z 27006KT 07/06 A3037 RMK A01 T00690055  RH  091%=      5-min Rain = 0
KSB1 091532Z 27007KT 07/05 A3037 RMK A01 T00700054  RH  090%=      5-min Rain = 0
KSB1 091533Z 27006KT 07/05 A3037 RMK A01 T00710054  RH  089%=      5-min Rain = 0
KSB1 091534Z 27005KT 07/05 A3037 RMK A01 T00720054  RH  089%=      5-min Rain = 0
KSB1 091535Z 27007KT 07/05 A3037 RMK A01 T00720054  RH  088%=      5-min Rain = 0
KSB1 091536Z 29007KT 07/05 A3037 RMK A01 T00730053  RH  087%=      5-min Rain = 0
KSB1 091537Z 28007KT 07/05 A3038 RMK A01 T00740052  RH  086%=      5-min Rain = 0
KSB1 091538Z 28008KT 08/05 A3038 RMK A01 T00750053  RH  086%=      5-min Rain = 0
KSB1 091539Z 28007KT 08/05 A3038 RMK A01 T00760052  RH  085%=      5-min Rain = 0
KSB1 091540Z 28008KT 08/05 A3038 RMK A01 T00770054  RH  085%=      5-min Rain = 0
KSB1 091541Z 28009KT 08/05 A3038 RMK A01 T00770052  RH  084%=      5-min Rain = 0
KSB1 091542Z 28007KT 08/05 A3038 RMK A01 T00770052  RH  084%=      5-min Rain = 0
KSB1 091543Z 29007KT 08/05 A3038 RMK A01 T00770052  RH  084%=      5-min Rain = 0
KSB1 091544Z 29007KT 08/05 A3038 RMK A01 T00780053  RH  084%=      5-min Rain = 0
KSB1 091545Z 28008KT 08/05 A3038 RMK A01 T00780052  RH  083%=      5-min Rain = 0
KSB1 091546Z 28006KT 08/05 A3038 RMK A01 T00790052  RH  083%=      5-min Rain = 0
KSB1 091547Z 28007KT 08/05 A3038 RMK A01 T00790053  RH  084%=      5-min Rain = 0
KSB1 091548Z 29009KT 08/05 A3038 RMK A01 T00800053  RH  083%=      5-min Rain = 0
KSB1 091549Z 28008KT 08/05 A3038 RMK A01 T00800051  RH  082%=      5-min Rain = 0
KSB1 091550Z 29008KT 08/05 A3038 RMK A01 T00800052  RH  082%=      5-min Rain = 0
KSB1 091551Z 29007KT 08/05 A3038 RMK A01 T00800051  RH  082%=      5-min Rain = 0
KSB1 091552Z 29007KT 08/05 A3038 RMK A01 T00800052  RH  082%=      5-min Rain = 0
KSB1 091553Z 29006KT 08/05 A3038 RMK A01 T00800052  RH  082%=      5-min Rain = 0
KSB1 091554Z 28007KT 08/05 A3038 RMK A01 T00810053  RH  083%=      5-min Rain = 0
KSB1 091555Z 29007KT 08/05 A3038 RMK A01 T00810053  RH  082%=      5-min Rain = 0
KSB1 091556Z 29005KT 08/05 A3038 RMK A01 T00820054  RH  082%=      5-min Rain = 0
KSB1 091557Z 30005KT 08/06 A3038 RMK A01 T00830055  RH  082%=      5-min Rain = 0
KSB1 091558Z 29007KT 08/05 A3038 RMK A01 T00840054  RH  081%=      5-min Rain = 0
KSB1 091559Z 29006KT 08/05 A3038 RMK A01 T00840054  RH  081%=      5-min Rain = 0
KSB1 091600Z 29007KT 08/05 A3038 RMK A01 T00840054  RH  081%=      5-min Rain = 0
KSB1 091601Z 29006KT 08/05 A3038 RMK A01 T00840051  RH  080%=      5-min Rain = 0
KSB1 091602Z 28006KT 08/05 A3038 RMK A01 T00840053  RH  081%=      5-min Rain = 0
KSB1 091603Z 28005KT 08/05 A3039 RMK A01 T00840053  RH  081%=      5-min Rain = 0
KSB1 091604Z 28006KT 09/05 A3039 RMK A01 T00850054  RH  081%=      5-min Rain = 0
KSB1 091605Z 28007KT 09/05 A3039 RMK A01 T00860054  RH  081%=      5-min Rain = 0
KSB1 091606Z 28008KT 09/05 A3039 RMK A01 T00860052  RH  080%=      5-min Rain = 0
KSB1 091607Z 28009KT 09/05 A3039 RMK A01 T00850052  RH  079%=      5-min Rain = 0
KSB1 091608Z 27008KT 08/05 A3039 RMK A01 T00840052  RH  080%=      5-min Rain = 0
KSB1 091609Z 28008KT 08/05 A3039 RMK A01 T00840051  RH  080%=      5-min Rain = 0
KSB1 091610Z 27007KT 08/05 A3039 RMK A01 T00840051  RH  080%=      5-min Rain = 0
KSB1 091611Z 26008KT 08/05 A3039 RMK A01 T00840053  RH  081%=      5-min Rain = 0
KSB1 091612Z 27008KT 09/05 A3039 RMK A01 T00850053  RH  080%=      5-min Rain = 0
KSB1 091613Z 27008KT 09/05 A3039 RMK A01 T00850052  RH  080%=      5-min Rain = 0
KSB1 091614Z 27008KT 08/05 A3039 RMK A01 T00840051  RH  080%=      5-min Rain = 0
KSB1 091615Z 28008KT 08/05 A3039 RMK A01 T00840051  RH  079%=      5-min Rain = 0
KSB1 091616Z 28007KT 08/05 A3039 RMK A01 T00840051  RH  080%=      5-min Rain = 0
KSB1 091617Z 27006KT 09/05 A3039 RMK A01 T00850054  RH  081%=      5-min Rain = 0
KSB1 091618Z 26007KT 09/05 A3039 RMK A01 T00870054  RH  080%=      5-min Rain = 0
KSB1 091619Z 27007KT 09/05 A3039 RMK A01 T00860051  RH  078%=      5-min Rain = 0
KSB1 091620Z 27007KT 09/05 A3039 RMK A01 T00860052  RH  079%=      5-min Rain = 0
KSB1 091621Z 26006KT 09/05 A3039 RMK A01 T00870054  RH  080%=      5-min Rain = 0
KSB1 091622Z 28006KT 09/05 A3039 RMK A01 T00890054  RH  079%=      5-min Rain = 0
KSB1 091623Z 28006KT 09/06 A3039 RMK A01 T00890055  RH  079%=      5-min Rain = 0
KSB1 091624Z 27007KT 09/05 A3039 RMK A01 T00890053  RH  078%=      5-min Rain = 0
KSB1 091625Z 28007KT 09/05 A3039 RMK A01 T00880053  RH  079%=      5-min Rain = 0
KSB1 091626Z 29008KT 09/05 A3039 RMK A01 T00880051  RH  078%=      5-min Rain = 0
KSB1 091627Z 27006KT 09/05 A3039 RMK A01 T00880052  RH  078%=      5-min Rain = 0
KSB1 091628Z 27007KT 09/05 A3039 RMK A01 T00880052  RH  078%=      5-min Rain = 0
KSB1 091629Z 27008KT 09/05 A3039 RMK A01 T00880051  RH  078%=      5-min Rain = 0
KSB1 091630Z 28006KT 09/05 A3039 RMK A01 T00880051  RH  078%=      5-min Rain = 0
KSB1 091631Z 27007KT 09/05 A3039 RMK A01 T00880052  RH  078%=      5-min Rain = 0
KSB1 091632Z 27007KT 09/05 A3039 RMK A01 T00880053  RH  079%=      5-min Rain = 0
KSB1 091633Z 28008KT 09/05 A3039 RMK A01 T00900052  RH  077%=      5-min Rain = 0
KSB1 091634Z 28007KT 09/05 A3039 RMK A01 T00890052  RH  077%=      5-min Rain = 0
KSB1 091635Z 28006KT 09/05 A3039 RMK A01 T00900053  RH  078%=      5-min Rain = 0
KSB1 091636Z 27006KT 09/05 A3039 RMK A01 T00900052  RH  077%=      5-min Rain = 0
KSB1 091637Z 26006KT 09/05 A3039 RMK A01 T00900051  RH  077%=      5-min Rain = 0
KSB1 091638Z 28006KT 09/05 A3039 RMK A01 T00890050  RH  077%=      5-min Rain = 0
KSB1 091639Z 28006KT 09/05 A3039 RMK A01 T00890051  RH  077%=      5-min Rain = 0
KSB1 091640Z 27006KT 09/05 A3039 RMK A01 T00880051  RH  078%=      5-min Rain = 0
KSB1 091641Z 26006KT 09/05 A3039 RMK A01 T00890053  RH  078%=      5-min Rain = 0
KSB1 091642Z 27005KT 09/05 A3039 RMK A01 T00900052  RH  077%=      5-min Rain = 0
KSB1 091643Z 27006KT 09/05 A3039 RMK A01 T00900053  RH  077%=      5-min Rain = 0
KSB1 091644Z 27007KT 09/05 A3039 RMK A01 T00920053  RH  077%=      5-min Rain = 0
KSB1 091645Z 27007KT 09/05 A3039 RMK A01 T00920052  RH  076%=      5-min Rain = 0
KSB1 091646Z 26006KT 09/05 A3039 RMK A01 T00910051  RH  076%=      5-min Rain = 0
KSB1 091647Z 30006KT 09/05 A3039 RMK A01 T00920053  RH  076%=      5-min Rain = 0
KSB1 091648Z 01006KT 09/05 A3039 RMK A01 T00930053  RH  076%=      5-min Rain = 0
KSB1 091649Z 01006KT 09/06 A3039 RMK A01 T00940056  RH  077%=      5-min Rain = 0
KSB1 091650Z 00004KT 10/06 A3039 RMK A01 T00950057  RH  077%=      5-min Rain = 0
KSB1 091651Z 01002KT 10/05 A3039 RMK A01 T00950050  RH  073%=      5-min Rain = 0
KSB1 091652Z 35004KT 10/05 A3039 RMK A01 T00960052  RH  074%=      5-min Rain = 0
KSB1 091653Z 35005KT 10/05 A3039 RMK A01 T00960052  RH  074%=      5-min Rain = 0
KSB1 091654Z 35003KT 10/05 A3039 RMK A01 T00960050  RH  073%=      5-min Rain = 0
KSB1 091655Z 33004KT 09/05 A3039 RMK A01 T00940050  RH  074%=      5-min Rain = 0
KSB1 091656Z 33004KT 09/05 A3039 RMK A01 T00940051  RH  074%=      5-min Rain = 0
KSB1 091657Z 35003KT 09/05 A3039 RMK A01 T00940050  RH  074%=      5-min Rain = 0
KSB1 091658Z 32005KT 09/05 A3039 RMK A01 T00940050  RH  074%=      5-min Rain = 0
KSB1 091659Z 32006KT 09/05 A3039 RMK A01 T00940050  RH  074%=      5-min Rain = 0
KSB1 091700Z 32004KT 09/05 A3039 RMK A01 T00940051  RH  075%=      5-min Rain = 0
KSB1 091701Z 32004KT 09/05 A3039 RMK A01 T00940052  RH  075%=      5-min Rain = 0
KSB1 091702Z 32004KT 10/05 A3039 RMK A01 T00950052  RH  075%=      5-min Rain = 0
KSB1 091703Z 35006KT 10/05 A3039 RMK A01 T00950052  RH  074%=      5-min Rain = 0
KSB1 091704Z 32005KT 10/05 A3039 RMK A01 T00950048  RH  072%=      5-min Rain = 0
KSB1 091705Z 31006KT 10/05 A3039 RMK A01 T00960053  RH  074%=      5-min Rain = 0
KSB1 091706Z 33006KT 10/05 A3039 RMK A01 T00980054  RH  074%=      5-min Rain = 0
KSB1 091707Z 32005KT 10/05 A3039 RMK A01 T00980053  RH  073%=      5-min Rain = 0
KSB1 091708Z 33007KT 10/05 A3039 RMK A01 T00990053  RH  073%=      5-min Rain = 0
KSB1 091709Z 33006KT 10/05 A3039 RMK A01 T00990053  RH  073%=      5-min Rain = 0
KSB1 091710Z 32007KT 10/05 A3039 RMK A01 T00990053  RH  073%=      5-min Rain = 0
KSB1 091711Z 31006KT 10/05 A3039 RMK A01 T01000053  RH  073%=      5-min Rain = 0
KSB1 091712Z 31005KT 10/05 A3039 RMK A01 T00980050  RH  072%=      5-min Rain = 0
KSB1 091713Z 31005KT 10/05 A3039 RMK A01 T00980053  RH  074%=      5-min Rain = 0
KSB1 091714Z 31004KT 10/05 A3039 RMK A01 T00990050  RH  072%=      5-min Rain = 0
KSB1 091715Z 30004KT 10/05 A3039 RMK A01 T00990050  RH  072%=      5-min Rain = 0
KSB1 091716Z 30004KT 10/05 A3039 RMK A01 T00980050  RH  072%=      5-min Rain = 0
KSB1 091717Z 32004KT 10/05 A3039 RMK A01 T00990052  RH  073%=      5-min Rain = 0
KSB1 091718Z 31004KT 10/05 A3039 RMK A01 T00990050  RH  071%=      5-min Rain = 0
KSB1 091719Z 31003KT 10/05 A3039 RMK A01 T01000045  RH  069%=      5-min Rain = 0
KSB1 091720Z 30005KT 10/05 A3038 RMK A01 T01010052  RH  072%=      5-min Rain = 0
KSB1 091721Z 30003KT 10/06 A3038 RMK A01 T01030055  RH  072%=      5-min Rain = 0
KSB1 091722Z 31005KT 10/05 A3038 RMK A01 T01040053  RH  070%=      5-min Rain = 0
KSB1 091723Z 32006KT 10/05 A3038 RMK A01 T01040051  RH  069%=      5-min Rain = 0
KSB1 091724Z 32003KT 10/05 A3038 RMK A01 T01030048  RH  069%=      5-min Rain = 0
KSB1 091725Z 31002KT 10/05 A3038 RMK A01 T01010046  RH  068%=      5-min Rain = 0
KSB1 091726Z 28005KT 10/05 A3038 RMK A01 T00990045  RH  069%=      5-min Rain = 0
KSB1 091727Z 27005KT 10/05 A3038 RMK A01 T00990049  RH  071%=      5-min Rain = 0
KSB1 091728Z 30004KT 10/05 A3038 RMK A01 T01000051  RH  071%=      5-min Rain = 0
KSB1 091729Z 31003KT 10/04 A3038 RMK A01 T01000043  RH  067%=      5-min Rain = 0
KSB1 091730Z 26003KT 10/05 A3038 RMK A01 T01000047  RH  070%=      5-min Rain = 0
KSB1 091731Z 28006KT 10/05 A3038 RMK A01 T01010050  RH  070%=      5-min Rain = 0
KSB1 091732Z 27005KT 10/05 A3038 RMK A01 T01020052  RH  071%=      5-min Rain = 0
KSB1 091733Z 26003KT 10/05 A3038 RMK A01 T01020053  RH  071%=      5-min Rain = 0
KSB1 091734Z 29005KT 10/05 A3038 RMK A01 T01040054  RH  071%=      5-min Rain = 0
KSB1 091735Z 28005KT 11/05 A3038 RMK A01 T01060052  RH  069%=      5-min Rain = 0
KSB1 091736Z 29005KT 10/05 A3038 RMK A01 T01040048  RH  068%=      5-min Rain = 0
KSB1 091737Z 27006KT 10/05 A3038 RMK A01 T01020046  RH  068%=      5-min Rain = 0
KSB1 091738Z 28006KT 10/05 A3038 RMK A01 T01010048  RH  069%=      5-min Rain = 0
KSB1 091739Z 27006KT 10/05 A3038 RMK A01 T01020050  RH  070%=      5-min Rain = 0
KSB1 091740Z 29006KT 10/05 A3038 RMK A01 T01030051  RH  070%=      5-min Rain = 0
KSB1 091741Z 29005KT 11/05 A3038 RMK A01 T01050052  RH  070%=      5-min Rain = 0
KSB1 091742Z 29004KT 11/05 A3038 RMK A01 T01050047  RH  067%=      5-min Rain = 0
KSB1 091743Z 28004G9KT 10/05 A3038 RMK A01 T01040045  RH  067%=      5-min Rain = 0
KSB1 091744Z 29006KT 10/05 A3038 RMK A01 T01040046  RH  067%=      5-min Rain = 0
KSB1 091745Z 30006KT 10/05 A3038 RMK A01 T01040046  RH  067%=      5-min Rain = 0
KSB1 091746Z 32005KT 11/04 A3038 RMK A01 T01050043  RH  066%=      5-min Rain = 0
KSB1 091747Z 32003KT 11/04 A3038 RMK A01 T01060041  RH  064%=      5-min Rain = 0
KSB1 091748Z 30005KT 11/04 A3038 RMK A01 T01070043  RH  065%=      5-min Rain = 0
KSB1 091749Z 28005KT 11/05 A3038 RMK A01 T01060045  RH  066%=      5-min Rain = 0
KSB1 091750Z 33006KT 11/05 A3038 RMK A01 T01060045  RH  066%=      5-min Rain = 0
KSB1 091751Z 33006KT 11/04 A3037 RMK A01 T01080044  RH  065%=      5-min Rain = 0
KSB1 091752Z 32005KT 11/05 A3037 RMK A01 T01080046  RH  065%=      5-min Rain = 0
KSB1 091753Z 31005KT 11/05 A3037 RMK A01 T01090050  RH  067%=      5-min Rain = 0
KSB1 091754Z 32007KT 11/05 A3037 RMK A01 T01100048  RH  066%=      5-min Rain = 0
KSB1 091755Z 32008KT 11/05 A3037 RMK A01 T01100045  RH  064%=      5-min Rain = 0
KSB1 091756Z 33006KT 11/04 A3037 RMK A01 T01090041  RH  063%=      5-min Rain = 0
KSB1 091757Z 32007KT 11/04 A3037 RMK A01 T01080042  RH  064%=      5-min Rain = 0
KSB1 091758Z 30007KT 11/04 A3037 RMK A01 T01080042  RH  064%=      5-min Rain = 0
KSB1 091759Z 29005KT 11/04 A3037 RMK A01 T01060043  RH  065%=      5-min Rain = 0
KSB1 091800Z 30006KT 11/04 A3037 RMK A01 T01050044  RH  066%=      5-min Rain = 0
KSB1 091801Z 32006KT 11/04 A3037 RMK A01 T01050044  RH  066%=      5-min Rain = 0
KSB1 091802Z 30004KT 11/05 A3037 RMK A01 T01060047  RH  067%=      5-min Rain = 0
KSB1 091803Z 29005KT 11/04 A3037 RMK A01 T01080043  RH  065%=      5-min Rain = 0
KSB1 091804Z 29004KT 11/04 A3037 RMK A01 T01070041  RH  064%=      5-min Rain = 0
KSB1 091805Z 31006KT 11/04 A3037 RMK A01 T01070036  RH  061%=      5-min Rain = 0
KSB1 091806Z 30005KT 11/03 A3037 RMK A01 T01070033  RH  060%=      5-min Rain = 0
KSB1 091807Z 30006KT 11/03 A3037 RMK A01 T01060034  RH  061%=      5-min Rain = 0
KSB1 091808Z 32005KT 11/04 A3037 RMK A01 T01060037  RH  062%=      5-min Rain = 0
KSB1 091809Z 32004KT 11/03 A3037 RMK A01 T01070034  RH  061%=      5-min Rain = 0
KSB1 091810Z 31005KT 11/03 A3037 RMK A01 T01070034  RH  061%=      5-min Rain = 0
KSB1 091811Z 30003KT 11/04 A3037 RMK A01 T01050035  RH  062%=      5-min Rain = 0
KSB1 091812Z 31004KT 11/04 A3037 RMK A01 T01050038  RH  063%=      5-min Rain = 0
KSB1 091813Z 30005KT 11/04 A3037 RMK A01 T01060043  RH  065%=      5-min Rain = 0
KSB1 091814Z 28005KT 11/04 A3037 RMK A01 T01080039  RH  062%=      5-min Rain = 0
KSB1 091815Z 27005KT 11/04 A3037 RMK A01 T01080039  RH  062%=      5-min Rain = 0
KSB1 091816Z 29004KT 11/04 A3037 RMK A01 T01070039  RH  063%=      5-min Rain = 0
KSB1 091817Z 27006KT 11/04 A3037 RMK A01 T01070041  RH  064%=      5-min Rain = 0
KSB1 091818Z 29007KT 11/04 A3037 RMK A01 T01090044  RH  064%=      5-min Rain = 0
KSB1 091819Z 28006KT 11/04 A3037 RMK A01 T01080042  RH  063%=      5-min Rain = 0
KSB1 091820Z 29008KT 11/05 A3037 RMK A01 T01070045  RH  065%=      5-min Rain = 0
KSB1 091821Z 29007KT 11/04 A3037 RMK A01 T01080041  RH  063%=      5-min Rain = 0
KSB1 091822Z 29006KT 11/04 A3037 RMK A01 T01080042  RH  064%=      5-min Rain = 0
KSB1 091823Z 29006KT 11/04 A3037 RMK A01 T01080044  RH  065%=      5-min Rain = 0
KSB1 091824Z 29007KT 11/05 A3037 RMK A01 T01080045  RH  065%=      5-min Rain = 0
KSB1 091825Z 29008KT 11/04 A3037 RMK A01 T01090043  RH  064%=      5-min Rain = 0
KSB1 091826Z 28005KT 11/04 A3037 RMK A01 T01080044  RH  065%=      5-min Rain = 0
KSB1 091827Z 29005KT 11/05 A3037 RMK A01 T01090045  RH  065%=      5-min Rain = 0
KSB1 091828Z 29004KT 11/04 A3037 RMK A01 T01090042  RH  064%=      5-min Rain = 0
KSB1 091829Z 30006KT 11/05 A3037 RMK A01 T01090045  RH  064%=      5-min Rain = 0
KSB1 091830Z 29007KT 11/04 A3037 RMK A01 T01100044  RH  064%=      5-min Rain = 0
KSB1 091831Z 34005KT 11/05 A3037 RMK A01 T01100045  RH  064%=      5-min Rain = 0
KSB1 091832Z 30005KT 11/04 A3036 RMK A01 T01100043  RH  063%=      5-min Rain = 0
KSB1 091833Z 26008KT 11/05 A3036 RMK A01 T01090046  RH  065%=      5-min Rain = 0
KSB1 091834Z 27007KT 11/05 A3036 RMK A01 T01090045  RH  065%=      5-min Rain = 0
KSB1 091835Z 26006KT 11/04 A3036 RMK A01 T01080043  RH  064%=      5-min Rain = 0
KSB1 091836Z 30006KT 11/05 A3036 RMK A01 T01080047  RH  066%=      5-min Rain = 0
KSB1 091837Z 31005KT 11/05 A3036 RMK A01 T01100046  RH  064%=      5-min Rain = 0
KSB1 091838Z 31006KT 11/04 A3036 RMK A01 T01120044  RH  063%=      5-min Rain = 0
KSB1 091839Z 28005KT 11/05 A3036 RMK A01 T01130047  RH  064%=      5-min Rain = 0
KSB1 091840Z 25005KT 11/05 A3036 RMK A01 T01130047  RH  064%=      5-min Rain = 0
KSB1 091841Z 26006KT 11/05 A3036 RMK A01 T01130047  RH  064%=      5-min Rain = 0
KSB1 091842Z 29004KT 11/05 A3036 RMK A01 T01130045  RH  063%=      5-min Rain = 0
KSB1 091843Z 26006KT 11/05 A3036 RMK A01 T01120045  RH  064%=      5-min Rain = 0
KSB1 091844Z 28006KT 11/05 A3036 RMK A01 T01120046  RH  064%=      5-min Rain = 0
KSB1 091845Z 29007KT 11/05 A3036 RMK A01 T01110046  RH  064%=      5-min Rain = 0
KSB1 091846Z 29008KT 11/04 A3036 RMK A01 T01110044  RH  063%=      5-min Rain = 0
KSB1 091847Z 31004KT 11/04 A3036 RMK A01 T01100042  RH  063%=      5-min Rain = 0
KSB1 091848Z 29002KT 11/04 A3036 RMK A01 T01100043  RH  063%=      5-min Rain = 0
KSB1 091849Z 32005KT 11/04 A3036 RMK A01 T01110043  RH  063%=      5-min Rain = 0
KSB1 091850Z 28006KT 11/05 A3036 RMK A01 T01120047  RH  064%=      5-min Rain = 0
KSB1 091851Z 26006KT 11/04 A3036 RMK A01 T01120044  RH  063%=      5-min Rain = 0
KSB1 091852Z 27007KT 11/04 A3036 RMK A01 T01110043  RH  063%=      5-min Rain = 0
KSB1 091853Z 29007KT 11/04 A3036 RMK A01 T01100043  RH  063%=      5-min Rain = 0
KSB1 091854Z 29008KT 11/05 A3035 RMK A01 T01100045  RH  064%=      5-min Rain = 0
KSB1 091855Z 30008KT 11/05 A3035 RMK A01 T01100046  RH  065%=      5-min Rain = 0
KSB1 091856Z 29005KT 11/05 A3035 RMK A01 T01100047  RH  065%=      5-min Rain = 0
KSB1 091857Z 28008KT 11/05 A3035 RMK A01 T01090048  RH  066%=      5-min Rain = 0
KSB1 091858Z 27007KT 11/05 A3035 RMK A01 T01090048  RH  066%=      5-min Rain = 0
KSB1 091859Z 26007KT 11/05 A3035 RMK A01 T01090047  RH  066%=      5-min Rain = 0
KSB1 091900Z 30007KT 11/05 A3035 RMK A01 T01090048  RH  066%=      5-min Rain = 0
KSB1 091901Z 30004KT 11/05 A3035 RMK A01 T01100047  RH  065%=      5-min Rain = 0
KSB1 091902Z 26004KT 11/04 A3035 RMK A01 T01100042  RH  063%=      5-min Rain = 0
KSB1 091903Z 28004KT 11/04 A3035 RMK A01 T01090042  RH  063%=      5-min Rain = 0
KSB1 091904Z 28004KT 11/04 A3035 RMK A01 T01080042  RH  064%=      5-min Rain = 0
KSB1 091905Z 30005KT 11/05 A3035 RMK A01 T01080046  RH  065%=      5-min Rain = 0
KSB1 091906Z 27007KT 11/04 A3035 RMK A01 T01110044  RH  064%=      5-min Rain = 0
KSB1 091907Z 27005KT 11/05 A3035 RMK A01 T01100045  RH  064%=      5-min Rain = 0
KSB1 091908Z 29007KT 11/05 A3035 RMK A01 T01120048  RH  064%=      5-min Rain = 0
KSB1 091909Z 31007KT 11/05 A3035 RMK A01 T01130048  RH  064%=      5-min Rain = 0
KSB1 091910Z 30005KT 11/05 A3035 RMK A01 T01130048  RH  064%=      5-min Rain = 0
KSB1 091911Z 27005KT 11/05 A3035 RMK A01 T01140047  RH  064%=      5-min Rain = 0
KSB1 091912Z 29006KT 11/05 A3035 RMK A01 T01140046  RH  063%=      5-min Rain = 0
KSB1 091913Z 29005KT 11/05 A3035 RMK A01 T01140046  RH  063%=      5-min Rain = 0
KSB1 091914Z 28006KT 11/05 A3035 RMK A01 T01130048  RH  064%=      5-min Rain = 0
KSB1 091915Z 27006KT 11/05 A3035 RMK A01 T01140048  RH  064%=      5-min Rain = 0
KSB1 091916Z 28005KT 11/05 A3035 RMK A01 T01120045  RH  063%=      5-min Rain = 0
KSB1 091917Z 31006KT 11/05 A3035 RMK A01 T01110047  RH  065%=      5-min Rain = 0
KSB1 091918Z 32008KT 11/05 A3035 RMK A01 T01110045  RH  064%=      5-min Rain = 0
KSB1 091919Z 33008KT 11/05 A3035 RMK A01 T01120045  RH  064%=      5-min Rain = 0
KSB1 091920Z 34005KT 11/04 A3035 RMK A01 T01120043  RH  062%=      5-min Rain = 0
KSB1 091921Z 33003KT 11/04 A3035 RMK A01 T01120041  RH  061%=      5-min Rain = 0
KSB1 091922Z 30003KT 11/04 A3035 RMK A01 T01120039  RH  061%=      5-min Rain = 0
KSB1 091923Z 30006KT 11/04 A3034 RMK A01 T01130044  RH  063%=      5-min Rain = 0
KSB1 091924Z 31005KT 12/05 A3034 RMK A01 T01160050  RH  064%=      5-min Rain = 0
KSB1 091925Z 33006KT 12/05 A3034 RMK A01 T01180045  RH  061%=      5-min Rain = 0
KSB1 091926Z 32004KT 12/04 A3034 RMK A01 T01170043  RH  060%=      5-min Rain = 0
KSB1 091927Z 29004KT 12/04 A3034 RMK A01 T01160044  RH  061%=      5-min Rain = 0
KSB1 091928Z 31005KT 11/04 A3034 RMK A01 T01140041  RH  061%=      5-min Rain = 0
KSB1 091929Z 30007KT 11/05 A3034 RMK A01 T01130046  RH  063%=      5-min Rain = 0
KSB1 091930Z 31007KT 11/05 A3034 RMK A01 T01130045  RH  063%=      5-min Rain = 0
KSB1 091931Z 32006KT 11/05 A3034 RMK A01 T01140046  RH  063%=      5-min Rain = 0
KSB1 091932Z 32006KT 11/05 A3034 RMK A01 T01140046  RH  063%=      5-min Rain = 0
KSB1 091933Z 32004KT 11/04 A3034 RMK A01 T01140043  RH  062%=      5-min Rain = 0
KSB1 091934Z 32004KT 11/05 A3034 RMK A01 T01120045  RH  063%=      5-min Rain = 0
KSB1 091935Z 27003KT 11/05 A3034 RMK A01 T01140045  RH  063%=      5-min Rain = 0
KSB1 091936Z 29005KT 11/04 A3034 RMK A01 T01140044  RH  062%=      5-min Rain = 0
KSB1 091937Z 29006KT 12/04 A3034 RMK A01 T01150044  RH  062%=      5-min Rain = 0
KSB1 091938Z 31005KT 12/04 A3034 RMK A01 T01160042  RH  060%=      5-min Rain = 0
KSB1 091939Z 31007KT 12/04 A3034 RMK A01 T01160043  RH  061%=      5-min Rain = 0
KSB1 091940Z 30006KT 12/04 A3034 RMK A01 T01150037  RH  059%=      5-min Rain = 0
KSB1 091941Z 30006KT 11/04 A3034 RMK A01 T01130039  RH  060%=      5-min Rain = 0
KSB1 091942Z 33008KT 11/04 A3034 RMK A01 T01140043  RH  061%=      5-min Rain = 0
KSB1 091943Z 34006KT 11/04 A3034 RMK A01 T01140039  RH  060%=      5-min Rain = 0
KSB1 091944Z 31005KT 11/04 A3034 RMK A01 T01140042  RH  061%=      5-min Rain = 0
KSB1 091945Z 29006KT 12/04 A3034 RMK A01 T01150043  RH  061%=      5-min Rain = 0
KSB1 091946Z 30006KT 12/04 A3034 RMK A01 T01170041  RH  060%=      5-min Rain = 0
KSB1 091947Z 31007KT 12/04 A3034 RMK A01 T01160036  RH  058%=      5-min Rain = 0
KSB1 091948Z 31007KT 11/04 A3033 RMK A01 T01130037  RH  059%=      5-min Rain = 0
KSB1 091949Z 32007KT 11/04 A3033 RMK A01 T01140037  RH  059%=      5-min Rain = 0
KSB1 091950Z 32008KT 11/04 A3033 RMK A01 T01130037  RH  059%=      5-min Rain = 0
KSB1 091951Z 31007KT 11/04 A3033 RMK A01 T01130037  RH  060%=      5-min Rain = 0
KSB1 091952Z 30005KT 11/04 A3033 RMK A01 T01130038  RH  060%=      5-min Rain = 0
KSB1 091953Z 31006KT 11/04 A3033 RMK A01 T01140039  RH  060%=      5-min Rain = 0
KSB1 091954Z 31006KT 12/04 A3033 RMK A01 T01150039  RH  060%=      5-min Rain = 0
KSB1 091955Z 30006KT 12/04 A3033 RMK A01 T01150035  RH  058%=      5-min Rain = 0
KSB1 091956Z 31005KT 11/04 A3033 RMK A01 T01140037  RH  059%=      5-min Rain = 0
KSB1 091957Z 29005KT 12/04 A3033 RMK A01 T01160040  RH  060%=      5-min Rain = 0
KSB1 091958Z 27008KT 12/04 A3033 RMK A01 T01180038  RH  058%=      5-min Rain = 0
KSB1 091959Z 27005KT 12/03 A3033 RMK A01 T01170031  RH  055%=      5-min Rain = 0
KSB1 092000Z 27005KT 12/03 A3033 RMK A01 T01160032  RH  056%=      5-min Rain = 0
KSB1 092001Z 27005KT 12/04 A3033 RMK A01 T01150035  RH  058%=      5-min Rain = 0
KSB1 092002Z 30007KT 12/04 A3033 RMK A01 T01160035  RH  058%=      5-min Rain = 0
KSB1 092003Z 28005KT 12/04 A3033 RMK A01 T01160039  RH  059%=      5-min Rain = 0
KSB1 092004Z 27006KT 12/04 A3033 RMK A01 T01150038  RH  059%=      5-min Rain = 0
KSB1 092005Z 28008KT 12/04 A3033 RMK A01 T01180042  RH  060%=      5-min Rain = 0
KSB1 092006Z 28007KT 12/04 A3033 RMK A01 T01180036  RH  057%=      5-min Rain = 0
KSB1 092007Z 27005KT 11/03 A3033 RMK A01 T01140033  RH  057%=      5-min Rain = 0
KSB1 092008Z 32004KT 11/04 A3033 RMK A01 T01140038  RH  060%=      5-min Rain = 0
KSB1 092009Z 33007KT 12/04 A3033 RMK A01 T01170042  RH  060%=      5-min Rain = 0
KSB1 092010Z 34005KT 12/04 A3033 RMK A01 T01170040  RH  059%=      5-min Rain = 0
KSB1 092011Z 31007KT 12/04 A3033 RMK A01 T01170038  RH  058%=      5-min Rain = 0
KSB1 092012Z 31006KT 12/03 A3033 RMK A01 T01170034  RH  057%=      5-min Rain = 0
KSB1 092013Z 31006KT 12/03 A3033 RMK A01 T01160034  RH  057%=      5-min Rain = 0
KSB1 092014Z 31004KT 12/04 A3033 RMK A01 T01150037  RH  059%=      5-min Rain = 0
KSB1 092015Z 30004KT 12/04 A3033 RMK A01 T01160040  RH  060%=      5-min Rain = 0
KSB1 092016Z 28005KT 12/04 A3033 RMK A01 T01180039  RH  059%=      5-min Rain = 0
KSB1 092017Z 31005KT 12/04 A3033 RMK A01 T01190040  RH  058%=      5-min Rain = 0
KSB1 092018Z 31006KT 12/04 A3033 RMK A01 T01210041  RH  058%=      5-min Rain = 0
KSB1 092019Z 32005KT 12/04 A3033 RMK A01 T01210036  RH  056%=      5-min Rain = 0
KSB1 092020Z 33004KT 12/04 A3033 RMK A01 T01200038  RH  057%=      5-min Rain = 0
KSB1 092021Z 30006KT 12/03 A3033 RMK A01 T01190034  RH  056%=      5-min Rain = 0
KSB1 092022Z 28004KT 12/03 A3032 RMK A01 T01160030  RH  055%=      5-min Rain = 0
KSB1 092023Z 33005KT 12/04 A3032 RMK A01 T01160036  RH  058%=      5-min Rain = 0
KSB1 092024Z 31005KT 12/03 A3032 RMK A01 T01170034  RH  056%=      5-min Rain = 0
KSB1 092025Z 29005KT 12/04 A3032 RMK A01 T01180036  RH  057%=      5-min Rain = 0
KSB1 092026Z 29004KT 12/04 A3032 RMK A01 T01180041  RH  059%=      5-min Rain = 0
KSB1 092027Z 28006KT 12/04 A3032 RMK A01 T01210040  RH  058%=      5-min Rain = 0
KSB1 092028Z 28006KT 12/04 A3032 RMK A01 T01210041  RH  058%=      5-min Rain = 0
KSB1 092029Z 27007KT 12/04 A3032 RMK A01 T01210039  RH  057%=      5-min Rain = 0
KSB1 092030Z 28008KT 12/04 A3032 RMK A01 T01210039  RH  057%=      5-min Rain = 0
KSB1 092031Z 27006KT 12/03 A3032 RMK A01 T01200033  RH  055%=      5-min Rain = 0
KSB1 092032Z 30006KT 12/03 A3032 RMK A01 T01190034  RH  056%=      5-min Rain = 0
KSB1 092033Z 31006KT 12/04 A3032 RMK A01 T01200036  RH  057%=      5-min Rain = 0
KSB1 092034Z 28007KT 12/04 A3032 RMK A01 T01210037  RH  056%=      5-min Rain = 0
KSB1 092035Z 29006KT 12/04 A3032 RMK A01 T01210036  RH  056%=      5-min Rain = 0
KSB1 092036Z 32003KT 12/03 A3032 RMK A01 T01200033  RH  055%=      5-min Rain = 0
KSB1 092037Z 27006KT 12/04 A3032 RMK A01 T01190035  RH  056%=      5-min Rain = 0
KSB1 092038Z 27005KT 12/03 A3032 RMK A01 T01190032  RH  055%=      5-min Rain = 0
KSB1 092039Z 30006KT 12/04 A3032 RMK A01 T01190035  RH  056%=      5-min Rain = 0
KSB1 092040Z 31007KT 12/03 A3032 RMK A01 T01180032  RH  055%=      5-min Rain = 0
KSB1 092041Z 30006KT 12/03 A3032 RMK A01 T01180030  RH  055%=      5-min Rain = 0
KSB1 092042Z 30005KT 12/03 A3032 RMK A01 T01170032  RH  056%=      5-min Rain = 0
KSB1 092043Z 28004KT 12/03 A3032 RMK A01 T01170028  RH  055%=      5-min Rain = 0
KSB1 092044Z 27006KT 12/04 A3032 RMK A01 T01180038  RH  058%=      5-min Rain = 0
KSB1 092045Z 29005KT 12/04 A3032 RMK A01 T01190038  RH  058%=      5-min Rain = 0
KSB1 092046Z 32005KT 12/04 A3032 RMK A01 T01210039  RH  057%=      5-min Rain = 0
KSB1 092047Z 32005KT 12/04 A3032 RMK A01 T01210036  RH  056%=      5-min Rain = 0
KSB1 092048Z 28007KT 12/04 A3032 RMK A01 T01210036  RH  056%=      5-min Rain = 0
KSB1 092049Z 28007KT 12/04 A3032 RMK A01 T01200038  RH  057%=      5-min Rain = 0
KSB1 092050Z 28006KT 12/04 A3032 RMK A01 T01210039  RH  057%=      5-min Rain = 0
KSB1 092051Z 27005KT 12/04 A3032 RMK A01 T01210039  RH  057%=      5-min Rain = 0
KSB1 092052Z 29005KT 12/04 A3032 RMK A01 T01220039  RH  057%=      5-min Rain = 0
KSB1 092053Z 31005G10KT 12/04 A3032 RMK A01 T01240039  RH  056%=      5-min Rain = 0
KSB1 092054Z 31008KT 12/03 A3032 RMK A01 T01240034  RH  054%=      5-min Rain = 0
KSB1 092055Z 32007KT 12/03 A3032 RMK A01 T01240032  RH  053%=      5-min Rain = 0
KSB1 092056Z 32006KT 12/03 A3032 RMK A01 T01240029  RH  052%=      5-min Rain = 0
KSB1 092057Z 32007KT 12/03 A3032 RMK A01 T01240027  RH  052%=      5-min Rain = 0
KSB1 092058Z 32009KT 12/02 A3031 RMK A01 T01230019  RH  049%=      5-min Rain = 0
KSB1 092059Z 32008KT 12/02 A3031 RMK A01 T01210018  RH  049%=      5-min Rain = 0
KSB1 092100Z 32007KT 12/02 A3031 RMK A01 T01200019  RH  050%=      5-min Rain = 0
KSB1 092101Z 32005KT 12/02 A3031 RMK A01 T01200019  RH  050%=      5-min Rain = 0
KSB1 092102Z 29007KT 12/02 A3032 RMK A01 T01200022  RH  051%=      5-min Rain = 0
KSB1 092103Z 28007KT 12/02 A3032 RMK A01 T01210020  RH  050%=      5-min Rain = 0
KSB1 092104Z 28004KT 12/02 A3032 RMK A01 T01200019  RH  050%=      5-min Rain = 0
KSB1 092105Z 28005KT 12/02 A3032 RMK A01 T01190023  RH  052%=      5-min Rain = 0
KSB1 092106Z 27007KT 12/03 A3032 RMK A01 T01210028  RH  053%=      5-min Rain = 0
KSB1 092107Z 26004KT 12/02 A3032 RMK A01 T01210024  RH  052%=      5-min Rain = 0
KSB1 092108Z 29004KT 12/03 A3032 RMK A01 T01210029  RH  053%=      5-min Rain = 0
KSB1 092109Z 32007KT 12/03 A3032 RMK A01 T01240026  RH  051%=      5-min Rain = 0
KSB1 092110Z 32008KT 12/02 A3032 RMK A01 T01240023  RH  050%=      5-min Rain = 0
KSB1 092111Z 31008KT 12/03 A3031 RMK A01 T01220025  RH  051%=      5-min Rain = 0
KSB1 092112Z 31008KT 12/02 A3031 RMK A01 T01210024  RH  051%=      5-min Rain = 0
KSB1 092113Z 31007KT 12/02 A3032 RMK A01 T01190017  RH  050%=      5-min Rain = 0
KSB1 092114Z 32006KT 12/01 A3031 RMK A01 T01190014  RH  049%=      5-min Rain = 0
KSB1 092115Z 32005KT 12/02 A3031 RMK A01 T01190018  RH  050%=      5-min Rain = 0
KSB1 092116Z 34006KT 12/02 A3031 RMK A01 T01190022  RH  051%=      5-min Rain = 0
KSB1 092117Z 33008KT 12/02 A3031 RMK A01 T01200023  RH  051%=      5-min Rain = 0
KSB1 092118Z 32007KT 12/02 A3031 RMK A01 T01190024  RH  052%=      5-min Rain = 0
KSB1 092119Z 31007KT 12/03 A3031 RMK A01 T01200025  RH  052%=      5-min Rain = 0
KSB1 092120Z 31007KT 12/02 A3031 RMK A01 T01200023  RH  051%=      5-min Rain = 0
KSB1 092121Z 32007KT 12/03 A3031 RMK A01 T01190025  RH  052%=      5-min Rain = 0
KSB1 092122Z 32008KT 12/02 A3031 RMK A01 T01200024  RH  052%=      5-min Rain = 0
KSB1 092123Z 32007KT 12/02 A3031 RMK A01 T01200023  RH  052%=      5-min Rain = 0
KSB1 092124Z 31006KT 12/02 A3031 RMK A01 T01190024  RH  052%=      5-min Rain = 0
KSB1 092125Z 32005KT 12/03 A3031 RMK A01 T01180028  RH  054%=      5-min Rain = 0
KSB1 092126Z 33006KT 12/03 A3031 RMK A01 T01190026  RH  053%=      5-min Rain = 0
KSB1 092127Z 32009KT 12/02 A3031 RMK A01 T01200021  RH  051%=      5-min Rain = 0
KSB1 092128Z 32009KT 12/02 A3031 RMK A01 T01200018  RH  050%=      5-min Rain = 0
KSB1 092129Z 30008KT 12/02 A3031 RMK A01 T01190019  RH  050%=      5-min Rain = 0
KSB1 092130Z 30007KT 12/02 A3031 RMK A01 T01190018  RH  050%=      5-min Rain = 0
KSB1 092131Z 33006KT 12/02 A3031 RMK A01 T01190021  RH  051%=      5-min Rain = 0
KSB1 092132Z 33007KT 12/02 A3031 RMK A01 T01190022  RH  051%=      5-min Rain = 0
KSB1 092133Z 31006KT 12/02 A3031 RMK A01 T01190020  RH  051%=      5-min Rain = 0
KSB1 092134Z 33008KT 12/02 A3031 RMK A01 T01190022  RH  052%=      5-min Rain = 0
KSB1 092135Z 32007KT 12/02 A3031 RMK A01 T01190022  RH  051%=      5-min Rain = 0
KSB1 092136Z 32006KT 12/02 A3031 RMK A01 T01200022  RH  051%=      5-min Rain = 0
KSB1 092137Z 31007KT 12/02 A3031 RMK A01 T01200020  RH  050%=      5-min Rain = 0
KSB1 092138Z 31006KT 12/01 A3031 RMK A01 T01190014  RH  048%=      5-min Rain = 0
KSB1 092139Z 31004KT 12/02 A3031 RMK A01 T01190016  RH  049%=      5-min Rain = 0
KSB1 092140Z 33005KT 12/02 A3031 RMK A01 T01200018  RH  050%=      5-min Rain = 0
KSB1 092141Z 33005KT 12/02 A3031 RMK A01 T01220021  RH  050%=      5-min Rain = 0
KSB1 092142Z 32005KT 12/02 A3031 RMK A01 T01220020  RH  050%=      5-min Rain = 0
KSB1 092143Z 32006KT 12/02 A3031 RMK A01 T01220018  RH  049%=      5-min Rain = 0
KSB1 092144Z 32005KT 12/02 A3031 RMK A01 T01220016  RH  048%=      5-min Rain = 0
KSB1 092145Z 33004KT 12/02 A3031 RMK A01 T01220016  RH  048%=      5-min Rain = 0
KSB1 092146Z 32004KT 12/02 A3031 RMK A01 T01210018  RH  049%=      5-min Rain = 0
KSB1 092147Z 31006KT 12/02 A3031 RMK A01 T01220017  RH  049%=      5-min Rain = 0
KSB1 092148Z 32006KT 12/02 A3031 RMK A01 T01220016  RH  048%=      5-min Rain = 0
KSB1 092149Z 32005KT 12/02 A3031 RMK A01 T01210016  RH  048%=      5-min Rain = 0
KSB1 092150Z 30007KT 12/01 A3031 RMK A01 T01210014  RH  048%=      5-min Rain = 0
KSB1 092151Z 30006KT 12/01 A3031 RMK A01 T01210009  RH  046%=      5-min Rain = 0
KSB1 092152Z 32006KT 12/01 A3031 RMK A01 T01200006  RH  045%=      5-min Rain = 0
KSB1 092153Z 32007KT 12/01 A3031 RMK A01 T01200005  RH  045%=      5-min Rain = 0
KSB1 092154Z 31007KT 12/01 A3031 RMK A01 T01210008  RH  046%=      5-min Rain = 0
KSB1 092155Z 30006KT 12/01 A3031 RMK A01 T01210009  RH  046%=      5-min Rain = 0
KSB1 092156Z 32006KT 12/01 A3031 RMK A01 T01200008  RH  046%=      5-min Rain = 0
KSB1 092157Z 32006KT 12/01 A3031 RMK A01 T01200012  RH  048%=      5-min Rain = 0
KSB1 092158Z 33006KT 12/01 A3031 RMK A01 T01210013  RH  048%=      5-min Rain = 0
KSB1 092159Z 34006KT 12/01 A3031 RMK A01 T01210014  RH  048%=      5-min Rain = 0
KSB1 092200Z 32006KT 12/02 A3031 RMK A01 T01200016  RH  049%=      5-min Rain = 0
KSB1 092201Z 32006KT 12/02 A3031 RMK A01 T01210016  RH  048%=      5-min Rain = 0
KSB1 092202Z 32007KT 12/01 A3031 RMK A01 T01230010  RH  046%=      5-min Rain = 0
KSB1 092203Z 31006KT 12/01 A3031 RMK A01 T01230011  RH  046%=      5-min Rain = 0
KSB1 092204Z 32006KT 12/01 A3031 RMK A01 T01220012  RH  047%=      5-min Rain = 0
KSB1 092205Z 32007KT 12/01 A3031 RMK A01 T01210011  RH  047%=      5-min Rain = 0
KSB1 092206Z 32006KT 12/01 A3031 RMK A01 T01210010  RH  047%=      5-min Rain = 0
KSB1 092207Z 32008KT 12/01 A3031 RMK A01 T01210010  RH  047%=      5-min Rain = 0
KSB1 092208Z 32006KT 12/01 A3031 RMK A01 T01210010  RH  047%=      5-min Rain = 0
KSB1 092209Z 33008KT 12/01 A3031 RMK A01 T01200007  RH  046%=      5-min Rain = 0
KSB1 092210Z 32005KT 12/01 A3031 RMK A01 T01190006  RH  046%=      5-min Rain = 0
KSB1 092211Z 32004KT 12/01 A3031 RMK A01 T01190007  RH  046%=      5-min Rain = 0
KSB1 092212Z 32006KT 12/00 A3031 RMK A01 T01190004  RH  045%=      5-min Rain = 0
KSB1 092213Z 31007KT 12/00 A3031 RMK A01 T01200002  RH  044%=      5-min Rain = 0
KSB1 092214Z 31006KT 12/00 A3031 RMK A01 T01210002  RH  044%=      5-min Rain = 0
KSB1 092215Z 32007KT 12/M00 A3031 RMK A01 T01201001  RH  043%=      5-min Rain = 0
KSB1 092216Z 32007KT 12/00 A3031 RMK A01 T01210001  RH  043%=      5-min Rain = 0
KSB1 092217Z 33006KT 12/M00 A3031 RMK A01 T01221003  RH  042%=      5-min Rain = 0
KSB1 092218Z 31005KT 12/00 A3031 RMK A01 T01210002  RH  044%=      5-min Rain = 0
KSB1 092219Z 29005KT 12/01 A3031 RMK A01 T01220009  RH  046%=      5-min Rain = 0
KSB1 092220Z 29004KT 12/01 A3031 RMK A01 T01230005  RH  044%=      5-min Rain = 0
KSB1 092221Z 31006KT 12/01 A3031 RMK A01 T01230005  RH  044%=      5-min Rain = 0
KSB1 092222Z 32007KT 12/00 A3031 RMK A01 T012300-0  RH  043%=      5-min Rain = 0
KSB1 092223Z 30008KT 12/00 A3031 RMK A01 T01220002  RH  044%=      5-min Rain = 0
KSB1 092224Z 29006KT 12/00 A3031 RMK A01 T01210003  RH  044%=      5-min Rain = 0
KSB1 092225Z 30004KT 12/01 A3031 RMK A01 T01210005  RH  045%=      5-min Rain = 0
KSB1 092226Z 28005KT 12/01 A3031 RMK A01 T01200006  RH  045%=      5-min Rain = 0
KSB1 092227Z 30006KT 12/01 A3031 RMK A01 T01200011  RH  047%=      5-min Rain = 0
KSB1 092228Z 32007KT 12/02 A3031 RMK A01 T01210016  RH  048%=      5-min Rain = 0
KSB1 092229Z 33006KT 12/02 A3031 RMK A01 T01210017  RH  049%=      5-min Rain = 0
KSB1 092230Z 32006KT 12/02 A3031 RMK A01 T01190015  RH  049%=      5-min Rain = 0
KSB1 092231Z 30007KT 12/01 A3031 RMK A01 T01190010  RH  047%=      5-min Rain = 0
KSB1 092232Z 29007KT 12/M01 A3031 RMK A01 T01201006  RH  042%=      5-min Rain = 0
KSB1 092233Z 29006KT 12/M02 A3031 RMK A01 T01211016  RH  039%=      5-min Rain = 0
KSB1 092234Z 30005KT 12/M01 A3031 RMK A01 T01211013  RH  039%=      5-min Rain = 0
KSB1 092235Z 31004KT 12/M01 A3031 RMK A01 T01211005  RH  042%=      5-min Rain = 0
KSB1 092236Z 28003KT 12/M00 A3031 RMK A01 T01201001  RH  043%=      5-min Rain = 0
KSB1 092237Z 30004KT 12/00 A3031 RMK A01 T01210001  RH  044%=      5-min Rain = 0
KSB1 092238Z 28009KT 12/M00 A3031 RMK A01 T01211002  RH  043%=      5-min Rain = 0
KSB1 092239Z 27007KT 12/M01 A3031 RMK A01 T01221006  RH  041%=      5-min Rain = 0
KSB1 092240Z 27006KT 12/M01 A3031 RMK A01 T01221005  RH  042%=      5-min Rain = 0
KSB1 092241Z 28007KT 12/00 A3031 RMK A01 T01230002  RH  043%=      5-min Rain = 0
KSB1 092242Z 27007KT 12/00 A3031 RMK A01 T01220004  RH  044%=      5-min Rain = 0
KSB1 092243Z 28007KT 12/01 A3031 RMK A01 T01220007  RH  045%=      5-min Rain = 0
KSB1 092244Z 28007KT 12/00 A3031 RMK A01 T01220002  RH  044%=      5-min Rain = 0
KSB1 092245Z 27007KT 12/M00 A3031 RMK A01 T01221002  RH  042%=      5-min Rain = 0
KSB1 092246Z 27006KT 12/M00 A3031 RMK A01 T01211001  RH  043%=      5-min Rain = 0
KSB1 092247Z 28004KT 12/M00 A3031 RMK A01 T01211003  RH  043%=      5-min Rain = 0
KSB1 092248Z 27004KT 12/M00 A3031 RMK A01 T01211001  RH  043%=      5-min Rain = 0
KSB1 092249Z 28005KT 12/00 A3031 RMK A01 T01210000  RH  043%=      5-min Rain = 0
KSB1 092250Z 28006KT 12/00 A3031 RMK A01 T01220003  RH  044%=      5-min Rain = 0
KSB1 092251Z 28003KT 12/00 A3031 RMK A01 T01220002  RH  044%=      5-min Rain = 0
KSB1 092252Z 28008KT 12/00 A3031 RMK A01 T01230002  RH  043%=      5-min Rain = 0
KSB1 092253Z 28007KT 12/00 A3031 RMK A01 T01230003  RH  044%=      5-min Rain = 0
KSB1 092254Z 29007KT 12/00 A3031 RMK A01 T01220004  RH  044%=      5-min Rain = 0
KSB1 092255Z 29006KT 12/01 A3031 RMK A01 T01220009  RH  046%=      5-min Rain = 0
KSB1 092256Z 28004KT 12/M01 A3031 RMK A01 T01221006  RH  041%=      5-min Rain = 0
KSB1 092257Z 27007KT 12/00 A3031 RMK A01 T01210001  RH  043%=      5-min Rain = 0
KSB1 092258Z 26005KT 12/M00 A3031 RMK A01 T01211001  RH  043%=      5-min Rain = 0
KSB1 092259Z 27007KT 12/00 A3031 RMK A01 T01200001  RH  044%=      5-min Rain = 0
KSB1 092300Z 27006KT 12/M00 A3031 RMK A01 T01201001  RH  043%=      5-min Rain = 0
KSB1 092301Z 29007KT 12/M00 A3031 RMK A01 T01201002  RH  043%=      5-min Rain = 0
KSB1 092302Z 29005KT 12/M00 A3031 RMK A01 T01201002  RH  043%=      5-min Rain = 0
KSB1 092303Z 29007KT 12/M00 A3031 RMK A01 T01201004  RH  042%=      5-min Rain = 0
KSB1 092304Z 28007KT 12/M01 A3031 RMK A01 T01201006  RH  042%=      5-min Rain = 0
KSB1 092305Z 28007KT 12/M00 A3031 RMK A01 T01191003  RH  043%=      5-min Rain = 0
KSB1 092306Z 29006KT 12/00 A3031 RMK A01 T01190003  RH  045%=      5-min Rain = 0
KSB1 092307Z 30006KT 12/00 A3031 RMK A01 T01190003  RH  045%=      5-min Rain = 0
KSB1 092308Z 30005KT 12/01 A3031 RMK A01 T01190005  RH  046%=      5-min Rain = 0
KSB1 092309Z 31004KT 12/01 A3031 RMK A01 T01180006  RH  046%=      5-min Rain = 0
KSB1 092310Z 29005KT 12/01 A3031 RMK A01 T01180005  RH  046%=      5-min Rain = 0
KSB1 092311Z 28007KT 12/01 A3031 RMK A01 T01180005  RH  046%=      5-min Rain = 0
KSB1 092312Z 28007KT 12/01 A3031 RMK A01 T01180007  RH  047%=      5-min Rain = 0
KSB1 092313Z 27005KT 12/01 A3031 RMK A01 T01170008  RH  047%=      5-min Rain = 0
KSB1 092314Z 27007KT 12/01 A3031 RMK A01 T01170008  RH  047%=      5-min Rain = 0
KSB1 092315Z 27006KT 12/01 A3031 RMK A01 T01170007  RH  047%=      5-min Rain = 0
KSB1 092316Z 27007KT 12/01 A3032 RMK A01 T01160010  RH  048%=      5-min Rain = 0
KSB1 092317Z 28006KT 12/01 A3032 RMK A01 T01160009  RH  048%=      5-min Rain = 0
KSB1 092318Z 28006KT 12/01 A3032 RMK A01 T01160010  RH  048%=      5-min Rain = 0
KSB1 092319Z 29007KT 12/01 A3032 RMK A01 T01160012  RH  049%=      5-min Rain = 0
KSB1 092320Z 28007KT 12/01 A3032 RMK A01 T01170008  RH  047%=      5-min Rain = 0
KSB1 092321Z 28005KT 12/01 A3032 RMK A01 T01170011  RH  048%=      5-min Rain = 0
KSB1 092322Z 28005KT 12/01 A3032 RMK A01 T01170011  RH  048%=      5-min Rain = 0
KSB1 092323Z 28005KT 12/01 A3032 RMK A01 T01160012  RH  049%=      5-min Rain = 0
KSB1 092324Z 28008KT 12/01 A3032 RMK A01 T01160010  RH  048%=      5-min Rain = 0
KSB1 092325Z 28007KT 12/01 A3032 RMK A01 T01150009  RH  048%=      5-min Rain = 0
KSB1 092326Z 28006KT 11/01 A3032 RMK A01 T01140009  RH  049%=      5-min Rain = 0
KSB1 092327Z 28007KT 11/01 A3032 RMK A01 T01140011  RH  049%=      5-min Rain = 0
KSB1 092328Z 28007KT 11/01 A3032 RMK A01 T01140007  RH  048%=      5-min Rain = 0
KSB1 092329Z 28007KT 11/01 A3032 RMK A01 T01140007  RH  048%=      5-min Rain = 0
KSB1 092330Z 28006KT 11/01 A3032 RMK A01 T01140009  RH  048%=      5-min Rain = 0
KSB1 092331Z 28006KT 11/01 A3032 RMK A01 T01130011  RH  049%=      5-min Rain = 0
KSB1 092332Z 28007KT 11/01 A3032 RMK A01 T01130011  RH  049%=      5-min Rain = 0
KSB1 092333Z 29007KT 11/01 A3032 RMK A01 T01130009  RH  049%=      5-min Rain = 0
KSB1 092334Z 28006KT 11/01 A3032 RMK A01 T01120008  RH  049%=      5-min Rain = 0
KSB1 092335Z 28007KT 11/01 A3032 RMK A01 T01120008  RH  049%=      5-min Rain = 0
KSB1 092336Z 28007KT 11/01 A3032 RMK A01 T01110008  RH  049%=      5-min Rain = 0
KSB1 092337Z 28007KT 11/01 A3032 RMK A01 T01110010  RH  050%=      5-min Rain = 0
KSB1 092338Z 28007KT 11/01 A3032 RMK A01 T01110012  RH  050%=      5-min Rain = 0
KSB1 092339Z 28008KT 11/01 A3032 RMK A01 T01100013  RH  051%=      5-min Rain = 0
KSB1 092340Z 28007KT 11/01 A3032 RMK A01 T01100013  RH  051%=      5-min Rain = 0
KSB1 092341Z 28007KT 11/01 A3032 RMK A01 T01090014  RH  052%=      5-min Rain = 0
KSB1 092342Z 28007KT 11/01 A3032 RMK A01 T01090014  RH  052%=      5-min Rain = 0
KSB1 092343Z 28007KT 11/01 A3032 RMK A01 T01080012  RH  051%=      5-min Rain = 0
KSB1 092344Z 28007KT 11/01 A3032 RMK A01 T01070011  RH  052%=      5-min Rain = 0
KSB1 092345Z 29007KT 11/01 A3032 RMK A01 T01060011  RH  052%=      5-min Rain = 0
KSB1 092346Z 28007KT 11/01 A3032 RMK A01 T01060010  RH  052%=      5-min Rain = 0
KSB1 092347Z 29007KT 11/01 A3032 RMK A01 T01060009  RH  051%=      5-min Rain = 0
KSB1 092348Z 29007KT 11/01 A3032 RMK A01 T01060010  RH  051%=      5-min Rain = 0
KSB1 092349Z 28006KT 11/01 A3032 RMK A01 T01060011  RH  052%=      5-min Rain = 0
KSB1 092350Z 29008KT 11/01 A3032 RMK A01 T01050010  RH  052%=      5-min Rain = 0
KSB1 092351Z 29008KT 11/01 A3032 RMK A01 T01050009  RH  051%=      5-min Rain = 0
KSB1 092352Z 29008KT 10/01 A3032 RMK A01 T01040009  RH  052%=      5-min Rain = 0
KSB1 092353Z 29008KT 10/01 A3032 RMK A01 T01040010  RH  052%=      5-min Rain = 0
KSB1 092354Z 28008KT 10/01 A3032 RMK A01 T01030010  RH  052%=      5-min Rain = 0
KSB1 092355Z 28008KT 10/01 A3032 RMK A01 T01030010  RH  053%=      5-min Rain = 0
KSB1 092356Z 29008KT 10/01 A3032 RMK A01 T01020008  RH  052%=      5-min Rain = 0
KSB1 092357Z 28007KT 10/01 A3032 RMK A01 T01020010  RH  053%=      5-min Rain = 0
KSB1 092358Z 29007KT 10/01 A3032 RMK A01 T01010009  RH  053%=      5-min Rain = 0
KSB1 092359Z 28007KT 10/01 A3032 RMK A01 T01010009  RH  053%=      5-min Rain = 0
KSB1 100000Z 29008KT 10/01 A3032 RMK A01 T01010012  RH  054%=      5-min Rain = 0
KSB1 100001Z 29008KT 10/01 A3032 RMK A01 T01000012  RH  054%=      5-min Rain = 0
KSB1 100002Z 29007KT 10/01 A3032 RMK A01 T00990011  RH  054%=      5-min Rain = 0
KSB1 100003Z 29007KT 10/01 A3032 RMK A01 T00990009  RH  054%=      5-min Rain = 0
KSB1 100004Z 30007KT 10/01 A3032 RMK A01 T00990009  RH  054%=      5-min Rain = 0
KSB1 100005Z 30007KT 10/01 A3032 RMK A01 T00990010  RH  054%=      5-min Rain = 0
KSB1 100006Z 30006KT 10/01 A3032 RMK A01 T00980009  RH  054%=      5-min Rain = 0
KSB1 100007Z 29006KT 10/01 A3032 RMK A01 T00970007  RH  053%=      5-min Rain = 0
KSB1 100008Z 28005KT 10/01 A3032 RMK A01 T00970008  RH  054%=      5-min Rain = 0
KSB1 100009Z 27004KT 10/01 A3032 RMK A01 T00960010  RH  055%=      5-min Rain = 0
KSB1 100010Z 27005KT 09/02 A3032 RMK A01 T00910016  RH  059%=      5-min Rain = 0
KSB1 100011Z 27005KT 09/02 A3032 RMK A01 T00860017  RH  062%=      5-min Rain = 0
KSB1 100012Z 27005KT 08/02 A3032 RMK A01 T00830018  RH  064%=      5-min Rain = 0
KSB1 100013Z 27005KT 08/02 A3032 RMK A01 T00800018  RH  065%=      5-min Rain = 0
KSB1 100014Z 27006KT 08/02 A3032 RMK A01 T00780019  RH  066%=      5-min Rain = 0
KSB1 100015Z 27006KT 08/02 A3032 RMK A01 T00770019  RH  067%=      5-min Rain = 0
KSB1 100016Z 27006KT 08/02 A3032 RMK A01 T00760019  RH  067%=      5-min Rain = 0
KSB1 100017Z 27007KT 07/02 A3032 RMK A01 T00740019  RH  068%=      5-min Rain = 0
KSB1 100018Z 27007KT 07/02 A3032 RMK A01 T00730020  RH  069%=      5-min Rain = 0
KSB1 100019Z 27007KT 07/02 A3033 RMK A01 T00720020  RH  069%=      5-min Rain = 0
KSB1 100020Z 28006KT 07/02 A3033 RMK A01 T00710019  RH  069%=      5-min Rain = 0
KSB1 100021Z 27007KT 07/02 A3033 RMK A01 T00720020  RH  069%=      5-min Rain = 0
KSB1 100022Z 27007KT 07/02 A3033 RMK A01 T00710020  RH  070%=      5-min Rain = 0
KSB1 100023Z 27006KT 07/02 A3033 RMK A01 T00710021  RH  070%=      5-min Rain = 0
KSB1 100024Z 27006KT 07/02 A3033 RMK A01 T00700021  RH  071%=      5-min Rain = 0
KSB1 100025Z 27006KT 07/02 A3033 RMK A01 T00700021  RH  071%=      5-min Rain = 0
KSB1 100026Z 27006KT 07/02 A3033 RMK A01 T00690021  RH  071%=      5-min Rain = 0
KSB1 100027Z 27006KT 07/02 A3033 RMK A01 T00690021  RH  072%=      5-min Rain = 0
KSB1 100028Z 27006KT 07/02 A3033 RMK A01 T00680021  RH  072%=      5-min Rain = 0
KSB1 100029Z 27006KT 07/02 A3033 RMK A01 T00670021  RH  073%=      5-min Rain = 0
KSB1 100030Z 28006KT 07/02 A3033 RMK A01 T00660022  RH  073%=      5-min Rain = 0
KSB1 100031Z 29006KT 07/02 A3033 RMK A01 T00670021  RH  073%=      5-min Rain = 0
KSB1 100032Z 28004KT 07/02 A3033 RMK A01 T00680021  RH  072%=      5-min Rain = 0
KSB1 100033Z 28004KT 07/02 A3033 RMK A01 T00690021  RH  071%=      5-min Rain = 0
KSB1 100034Z 29005KT 07/02 A3033 RMK A01 T00690022  RH  072%=      5-min Rain = 0
KSB1 100035Z 29005KT 07/02 A3033 RMK A01 T00680020  RH  072%=      5-min Rain = 0
KSB1 100036Z 30007KT 07/02 A3033 RMK A01 T00680018  RH  071%=      5-min Rain = 0
KSB1 100037Z 30007KT 07/01 A3033 RMK A01 T00740012  RH  065%=      5-min Rain = 0
KSB1 100038Z 30008KT 08/01 A3033 RMK A01 T00820009  RH  060%=      5-min Rain = 0
KSB1 100039Z 30007KT 09/01 A3033 RMK A01 T00870011  RH  059%=      5-min Rain = 0
KSB1 100040Z 30007KT 09/01 A3033 RMK A01 T00890009  RH  057%=      5-min Rain = 0
KSB1 100041Z 30006KT 09/01 A3033 RMK A01 T00910006  RH  055%=      5-min Rain = 0
KSB1 100042Z 30006KT 09/01 A3033 RMK A01 T00910006  RH  055%=      5-min Rain = 0
KSB1 100043Z 30006KT 09/01 A3033 RMK A01 T00920007  RH  055%=      5-min Rain = 0
KSB1 100044Z 30007KT 09/01 A3033 RMK A01 T00910009  RH  056%=      5-min Rain = 0
KSB1 100045Z 29006KT 09/01 A3033 RMK A01 T00910009  RH  057%=      5-min Rain = 0
KSB1 100046Z 29007KT 09/01 A3033 RMK A01 T00910011  RH  057%=      5-min Rain = 0
KSB1 100047Z 29007KT 09/01 A3033 RMK A01 T00910011  RH  057%=      5-min Rain = 0
KSB1 100048Z 28007KT 09/01 A3033 RMK A01 T00920014  RH  058%=      5-min Rain = 0
KSB1 100049Z 29007KT 09/02 A3033 RMK A01 T00920018  RH  060%=      5-min Rain = 0
KSB1 100050Z 29007KT 09/02 A3033 RMK A01 T00910020  RH  061%=      5-min Rain = 0
KSB1 100051Z 29007KT 09/02 A3033 RMK A01 T00910018  RH  061%=      5-min Rain = 0
KSB1 100052Z 28009KT 09/02 A3033 RMK A01 T00900022  RH  062%=      5-min Rain = 0
KSB1 100053Z 28009KT 09/03 A3033 RMK A01 T00900025  RH  064%=      5-min Rain = 0
KSB1 100054Z 28009KT 09/03 A3033 RMK A01 T00900027  RH  065%=      5-min Rain = 0
KSB1 100055Z 28008KT 09/03 A3033 RMK A01 T00900027  RH  065%=      5-min Rain = 0
KSB1 100056Z 28008KT 09/03 A3033 RMK A01 T00900028  RH  065%=      5-min Rain = 0
KSB1 100057Z 28008KT 09/03 A3033 RMK A01 T00890029  RH  066%=      5-min Rain = 0
KSB1 100058Z 29007KT 09/03 A3033 RMK A01 T00890029  RH  066%=      5-min Rain = 0
KSB1 100059Z 29007KT 09/03 A3033 RMK A01 T00880029  RH  067%=      5-min Rain = 0
KSB1 100100Z 29006KT 09/03 A3033 RMK A01 T00880029  RH  067%=      5-min Rain = 0
KSB1 100101Z 29007KT 09/03 A3033 RMK A01 T00870027  RH  066%=      5-min Rain = 0
KSB1 100102Z 28006KT 09/03 A3034 RMK A01 T00870025  RH  065%=      5-min Rain = 0
KSB1 100103Z 29006KT 09/03 A3034 RMK A01 T00870025  RH  065%=      5-min Rain = 0
KSB1 100104Z 29006KT 09/02 A3034 RMK A01 T00860020  RH  063%=      5-min Rain = 0
KSB1 100105Z 29005KT 09/02 A3034 RMK A01 T00860018  RH  062%=      5-min Rain = 0
KSB1 100106Z 28004KT 08/02 A3034 RMK A01 T00840023  RH  065%=      5-min Rain = 0
KSB1 100107Z 28005KT 08/03 A3034 RMK A01 T00800026  RH  069%=      5-min Rain = 0
KSB1 100108Z 27006KT 08/03 A3034 RMK A01 T00760027  RH  071%=      5-min Rain = 0
KSB1 100109Z 28007KT 07/03 A3034 RMK A01 T00720028  RH  073%=      5-min Rain = 0
KSB1 100110Z 28007KT 07/03 A3034 RMK A01 T00700028  RH  075%=      5-min Rain = 0
KSB1 100111Z 27006KT 07/03 A3034 RMK A01 T00700029  RH  075%=      5-min Rain = 0
KSB1 100112Z 28007KT 07/03 A3034 RMK A01 T00700030  RH  076%=      5-min Rain = 0
KSB1 100113Z 27007KT 07/03 A3034 RMK A01 T00700031  RH  076%=      5-min Rain = 0
KSB1 100114Z 28008KT 07/03 A3034 RMK A01 T00700031  RH  076%=      5-min Rain = 0
KSB1 100115Z 27008KT 07/03 A3034 RMK A01 T00720032  RH  076%=      5-min Rain = 0
KSB1 100116Z 27007KT 07/03 A3034 RMK A01 T00740032  RH  075%=      5-min Rain = 0
KSB1 100117Z 28007KT 08/03 A3034 RMK A01 T00750033  RH  074%=      5-min Rain = 0
KSB1 100118Z 28007KT 08/03 A3034 RMK A01 T00750033  RH  074%=      5-min Rain = 0
KSB1 100119Z 28007KT 08/03 A3034 RMK A01 T00760033  RH  074%=      5-min Rain = 0
KSB1 100120Z 28007KT 08/03 A3034 RMK A01 T00760033  RH  074%=      5-min Rain = 0
KSB1 100121Z 28007KT 08/03 A3034 RMK A01 T00760033  RH  074%=      5-min Rain = 0
KSB1 100122Z 28006KT 08/03 A3034 RMK A01 T00760034  RH  074%=      5-min Rain = 0
KSB1 100123Z 28006KT 08/03 A3034 RMK A01 T00760033  RH  074%=      5-min Rain = 0
KSB1 100124Z 28006KT 08/03 A3034 RMK A01 T00760033  RH  074%=      5-min Rain = 0
KSB1 100125Z 28006KT 08/03 A3034 RMK A01 T00760033  RH  075%=      5-min Rain = 0
KSB1 100126Z 29006KT 08/03 A3034 RMK A01 T00760034  RH  075%=      5-min Rain = 0
KSB1 100127Z 29006KT 08/04 A3034 RMK A01 T00760035  RH  076%=      5-min Rain = 0
KSB1 100128Z 30005KT 08/04 A3034 RMK A01 T00760036  RH  076%=      5-min Rain = 0
KSB1 100129Z 30004KT 08/04 A3034 RMK A01 T00770037  RH  076%=      5-min Rain = 0
KSB1 100130Z 30005KT 08/04 A3034 RMK A01 T00780036  RH  074%=      5-min Rain = 0
KSB1 100131Z 31005KT 08/03 A3034 RMK A01 T00790034  RH  073%=      5-min Rain = 0
KSB1 100132Z 31006KT 08/03 A3034 RMK A01 T00800034  RH  073%=      5-min Rain = 0
KSB1 100133Z 31006KT 08/03 A3034 RMK A01 T00810033  RH  072%=      5-min Rain = 0
KSB1 100134Z 31007KT 08/03 A3034 RMK A01 T00810031  RH  070%=      5-min Rain = 0
KSB1 100135Z 31008KT 08/03 A3034 RMK A01 T00820031  RH  070%=      5-min Rain = 0
KSB1 100136Z 32008KT 08/03 A3034 RMK A01 T00830032  RH  070%=      5-min Rain = 0
KSB1 100137Z 31008KT 08/03 A3034 RMK A01 T00830033  RH  071%=      5-min Rain = 0
KSB1 100138Z 32008KT 08/03 A3034 RMK A01 T00830034  RH  071%=      5-min Rain = 0
KSB1 100139Z 32008KT 08/03 A3034 RMK A01 T00830034  RH  071%=      5-min Rain = 0
KSB1 100140Z 32008KT 08/03 A3034 RMK A01 T00830034  RH  071%=      5-min Rain = 0
KSB1 100141Z 32008KT 08/03 A3034 RMK A01 T00830033  RH  071%=      5-min Rain = 0
KSB1 100142Z 31008KT 08/03 A3034 RMK A01 T00830034  RH  071%=      5-min Rain = 0
KSB1 100143Z 31009KT 08/03 A3034 RMK A01 T00830034  RH  071%=      5-min Rain = 0
KSB1 100144Z 31009KT 08/03 A3034 RMK A01 T00830034  RH  071%=      5-min Rain = 0
KSB1 100145Z 31009KT 08/03 A3034 RMK A01 T00830034  RH  071%=      5-min Rain = 0
KSB1 100146Z 31008KT 08/03 A3034 RMK A01 T00840034  RH  071%=      5-min Rain = 0
KSB1 100147Z 31009KT 08/03 A3034 RMK A01 T00830034  RH  071%=      5-min Rain = 0
KSB1 100148Z 31008KT 08/03 A3034 RMK A01 T00830034  RH  071%=      5-min Rain = 0
KSB1 100149Z 31009KT 08/03 A3034 RMK A01 T00830034  RH  071%=      5-min Rain = 0
KSB1 100150Z 31009KT 08/03 A3034 RMK A01 T00830034  RH  071%=      5-min Rain = 0
KSB1 100151Z 32009KT 08/03 A3034 RMK A01 T00830034  RH  071%=      5-min Rain = 0
KSB1 100152Z 32009KT 08/03 A3034 RMK A01 T00830033  RH  071%=      5-min Rain = 0
KSB1 100153Z 32008KT 08/03 A3034 RMK A01 T00830033  RH  071%=      5-min Rain = 0
KSB1 100154Z 32008KT 08/03 A3034 RMK A01 T00830033  RH  071%=      5-min Rain = 0
KSB1 100155Z 31009KT 08/03 A3034 RMK A01 T00820033  RH  071%=      5-min Rain = 0
KSB1 100156Z 31008KT 08/03 A3034 RMK A01 T00830033  RH  071%=      5-min Rain = 0
KSB1 100157Z 31008KT 08/03 A3034 RMK A01 T00830033  RH  071%=      5-min Rain = 0
KSB1 100158Z 31008KT 08/03 A3034 RMK A01 T00820033  RH  071%=      5-min Rain = 0
KSB1 100159Z 31009KT 08/03 A3035 RMK A01 T00820033  RH  071%=      5-min Rain = 0
KSB1 100200Z 31009KT 08/03 A3035 RMK A01 T00820033  RH  071%=      5-min Rain = 0
KSB1 100201Z 31009KT 08/03 A3035 RMK A01 T00810033  RH  071%=      5-min Rain = 0
KSB1 100202Z 31009KT 08/03 A3035 RMK A01 T00800032  RH  072%=      5-min Rain = 0
KSB1 100203Z 31009KT 08/03 A3035 RMK A01 T00800033  RH  072%=      5-min Rain = 0
KSB1 100204Z 31009KT 08/03 A3035 RMK A01 T00800033  RH  072%=      5-min Rain = 0
KSB1 100205Z 30009KT 08/03 A3035 RMK A01 T00790032  RH  072%=      5-min Rain = 0
KSB1 100206Z 30009KT 08/03 A3035 RMK A01 T00790032  RH  072%=      5-min Rain = 0
KSB1 100207Z 30009KT 08/03 A3035 RMK A01 T00800032  RH  072%=      5-min Rain = 0
KSB1 100208Z 30008KT 08/03 A3035 RMK A01 T00800032  RH  072%=      5-min Rain = 0
KSB1 100209Z 30008KT 08/03 A3035 RMK A01 T00800032  RH  071%=      5-min Rain = 0
KSB1 100210Z 30008KT 08/03 A3035 RMK A01 T00800031  RH  071%=      5-min Rain = 0
KSB1 100211Z 30008KT 08/03 A3035 RMK A01 T00800031  RH  071%=      5-min Rain = 0
KSB1 100212Z 30008KT 08/03 A3035 RMK A01 T00810031  RH  071%=      5-min Rain = 0
KSB1 100213Z 30008KT 08/03 A3035 RMK A01 T00810030  RH  070%=      5-min Rain = 0
KSB1 100214Z 30007KT 08/03 A3035 RMK A01 T00820031  RH  070%=      5-min Rain = 0
KSB1 100215Z 29007KT 08/03 A3035 RMK A01 T00820030  RH  070%=      5-min Rain = 0
KSB1 100216Z 29007KT 08/03 A3035 RMK A01 T00820030  RH  070%=      5-min Rain = 0
KSB1 100217Z 29008KT 08/03 A3035 RMK A01 T00820030  RH  070%=      5-min Rain = 0
KSB1 100218Z 29008KT 08/03 A3035 RMK A01 T00820030  RH  070%=      5-min Rain = 0
KSB1 100219Z 29008KT 08/03 A3035 RMK A01 T00820031  RH  071%=      5-min Rain = 0
KSB1 100220Z 29008KT 08/03 A3035 RMK A01 T00810032  RH  071%=      5-min Rain = 0
KSB1 100221Z 28007KT 08/03 A3035 RMK A01 T00810032  RH  071%=      5-min Rain = 0
KSB1 100222Z 28006KT 08/03 A3035 RMK A01 T00800032  RH  072%=      5-min Rain = 0
KSB1 100223Z 28007KT 08/03 A3035 RMK A01 T00790033  RH  072%=      5-min Rain = 0
KSB1 100224Z 28007KT 08/03 A3035 RMK A01 T00780032  RH  073%=      5-min Rain = 0
KSB1 100225Z 28007KT 08/03 A3035 RMK A01 T00760033  RH  074%=      5-min Rain = 0
KSB1 100226Z 28008KT 08/03 A3035 RMK A01 T00750033  RH  075%=      5-min Rain = 0
KSB1 100227Z 28008KT 07/03 A3035 RMK A01 T00740033  RH  075%=      5-min Rain = 0
KSB1 100228Z 28007KT 07/03 A3035 RMK A01 T00740033  RH  075%=      5-min Rain = 0
KSB1 100229Z 28007KT 07/03 A3035 RMK A01 T00730033  RH  076%=      5-min Rain = 0
KSB1 100230Z 28007KT 07/03 A3035 RMK A01 T00730033  RH  076%=      5-min Rain = 0
KSB1 100231Z 28008KT 07/03 A3035 RMK A01 T00720033  RH  076%=      5-min Rain = 0
KSB1 100232Z 28007KT 07/03 A3035 RMK A01 T00720033  RH  076%=      5-min Rain = 0
KSB1 100233Z 28007KT 07/03 A3035 RMK A01 T00720033  RH  076%=      5-min Rain = 0
KSB1 100234Z 28007KT 07/03 A3035 RMK A01 T00720033  RH  076%=      5-min Rain = 0
KSB1 100235Z 28006KT 07/03 A3035 RMK A01 T00720033  RH  076%=      5-min Rain = 0
KSB1 100236Z 28006KT 07/03 A3035 RMK A01 T00720032  RH  076%=      5-min Rain = 0
KSB1 100237Z 28006KT 07/03 A3035 RMK A01 T00710032  RH  076%=      5-min Rain = 0
KSB1 100238Z 28007KT 07/03 A3035 RMK A01 T00710032  RH  076%=      5-min Rain = 0
KSB1 100239Z 28006KT 07/03 A3035 RMK A01 T00710031  RH  076%=      5-min Rain = 0
KSB1 100240Z 28006KT 07/03 A3035 RMK A01 T00720031  RH  075%=      5-min Rain = 0
KSB1 100241Z 28006KT 07/03 A3035 RMK A01 T00720031  RH  075%=      5-min Rain = 0
KSB1 100242Z 28006KT 07/03 A3035 RMK A01 T00710031  RH  076%=      5-min Rain = 0
KSB1 100243Z 28007KT 07/03 A3035 RMK A01 T00700031  RH  076%=      5-min Rain = 0
KSB1 100244Z 28007KT 07/03 A3035 RMK A01 T00680031  RH  077%=      5-min Rain = 0
KSB1 100245Z 28008KT 07/03 A3035 RMK A01 T00670031  RH  078%=      5-min Rain = 0
KSB1 100246Z 28008KT 07/03 A3035 RMK A01 T00670031  RH  078%=      5-min Rain = 0
KSB1 100247Z 28008KT 07/03 A3035 RMK A01 T00680032  RH  078%=      5-min Rain = 0
KSB1 100248Z 28007KT 07/03 A3035 RMK A01 T00690032  RH  077%=      5-min Rain = 0
KSB1 100249Z 28007KT 07/03 A3035 RMK A01 T00700032  RH  077%=      5-min Rain = 0
KSB1 100250Z 28007KT 07/03 A3035 RMK A01 T00700032  RH  077%=      5-min Rain = 0
KSB1 100251Z 28006KT 07/03 A3035 RMK A01 T00700032  RH  077%=      5-min Rain = 0
KSB1 100252Z 28006KT 07/03 A3035 RMK A01 T00700032  RH  077%=      5-min Rain = 0
KSB1 100253Z 29005KT 07/03 A3035 RMK A01 T00700032  RH  077%=      5-min Rain = 0
KSB1 100254Z 29005KT 07/03 A3035 RMK A01 T00700032  RH  077%=      5-min Rain = 0
KSB1 100255Z 29005KT 07/03 A3035 RMK A01 T00700031  RH  076%=      5-min Rain = 0
KSB1 100256Z 29005KT 07/03 A3035 RMK A01 T00710030  RH  075%=      5-min Rain = 0
KSB1 100257Z 31004KT 07/03 A3035 RMK A01 T00720029  RH  074%=      5-min Rain = 0
KSB1 100258Z 09002KT 07/03 A3035 RMK A01 T00700026  RH  073%=      5-min Rain = 0
KSB1 100259Z 09003KT 07/02 A3035 RMK A01 T00660023  RH  074%=      5-min Rain = 0
KSB1 100300Z 09003KT 06/02 A3035 RMK A01 T00610022  RH  076%=      5-min Rain = 0
KSB1 100301Z 09004KT 06/02 A3035 RMK A01 T00580022  RH  078%=      5-min Rain = 0
KSB1 100302Z 09003KT 06/02 A3035 RMK A01 T00560022  RH  079%=      5-min Rain = 0
KSB1 100303Z 10003KT 05/02 A3036 RMK A01 T00540023  RH  080%=      5-min Rain = 0
KSB1 100304Z 09002KT 05/02 A3036 RMK A01 T00520022  RH  081%=      5-min Rain = 0
KSB1 100305Z 09003KT 05/02 A3036 RMK A01 T00490021  RH  082%=      5-min Rain = 0
KSB1 100306Z 07003KT 05/02 A3036 RMK A01 T00460021  RH  084%=      5-min Rain = 0
KSB1 100307Z 06003KT 05/02 A3036 RMK A01 T00450022  RH  085%=      5-min Rain = 0
KSB1 100308Z 04003KT 04/02 A3036 RMK A01 T00440022  RH  086%=      5-min Rain = 0
KSB1 100309Z 04001KT 04/02 A3036 RMK A01 T00430022  RH  086%=      5-min Rain = 0
KSB1 100310Z 04000KT 04/02 A3036 RMK A01 T00430023  RH  087%=      5-min Rain = 0
KSB1 100311Z 02001KT 04/02 A3036 RMK A01 T00430023  RH  087%=      5-min Rain = 0
KSB1 100312Z 02000KT 04/02 A3036 RMK A01 T00420022  RH  087%=      5-min Rain = 0
KSB1 100313Z 00000KT 04/02 A3036 RMK A01 T00420023  RH  087%=      5-min Rain = 0
KSB1 100314Z 04001KT 04/02 A3036 RMK A01 T00420023  RH  087%=      5-min Rain = 0
KSB1 100315Z 02000KT 04/02 A3036 RMK A01 T00410023  RH  088%=      5-min Rain = 0
KSB1 100316Z 00001KT 04/02 A3036 RMK A01 T00410023  RH  088%=      5-min Rain = 0
KSB1 100317Z 35000KT 04/02 A3036 RMK A01 T00410023  RH  088%=      5-min Rain = 0
KSB1 100318Z 01001KT 04/02 A3036 RMK A01 T00410023  RH  088%=      5-min Rain = 0
KSB1 100319Z 36002KT 04/02 A3036 RMK A01 T00410024  RH  088%=      5-min Rain = 0
KSB1 100320Z 36002KT 04/02 A3036 RMK A01 T00420024  RH  088%=      5-min Rain = 0
KSB1 100321Z 34002KT 04/03 A3036 RMK A01 T00440025  RH  088%=      5-min Rain = 0
KSB1 100322Z 33001KT 05/03 A3036 RMK A01 T00450025  RH  087%=      5-min Rain = 0
KSB1 100323Z 33001KT 05/03 A3036 RMK A01 T00470025  RH  086%=      5-min Rain = 0
KSB1 100324Z 33002KT 05/02 A3036 RMK A01 T00480024  RH  085%=      5-min Rain = 0
KSB1 100325Z 33003KT 05/02 A3036 RMK A01 T00490024  RH  084%=      5-min Rain = 0
KSB1 100326Z 33003KT 05/02 A3036 RMK A01 T00510023  RH  082%=      5-min Rain = 0
KSB1 100327Z 33003KT 05/02 A3036 RMK A01 T00520023  RH  081%=      5-min Rain = 0
KSB1 100328Z 33004KT 05/02 A3036 RMK A01 T00530022  RH  081%=      5-min Rain = 0
KSB1 100329Z 32005KT 05/02 A3036 RMK A01 T00540022  RH  080%=      5-min Rain = 0
KSB1 100330Z 32005KT 06/02 A3036 RMK A01 T00550021  RH  079%=      5-min Rain = 0
KSB1 100331Z 32005KT 06/02 A3036 RMK A01 T00580020  RH  076%=      5-min Rain = 0
KSB1 100332Z 31005KT 06/02 A3036 RMK A01 T00610019  RH  075%=      5-min Rain = 0
KSB1 100333Z 30004KT 06/02 A3036 RMK A01 T00640019  RH  073%=      5-min Rain = 0
KSB1 100334Z 30004KT 07/02 A3036 RMK A01 T00660018  RH  071%=      5-min Rain = 0
KSB1 100335Z 30003KT 07/02 A3036 RMK A01 T00680018  RH  070%=      5-min Rain = 0
KSB1 100336Z 29003KT 07/02 A3036 RMK A01 T00680019  RH  071%=      5-min Rain = 0
KSB1 100337Z 28002KT 07/02 A3036 RMK A01 T00670017  RH  070%=      5-min Rain = 0
KSB1 100338Z 29003KT 07/02 A3036 RMK A01 T00680015  RH  069%=      5-min Rain = 0
KSB1 100339Z 28003KT 07/02 A3036 RMK A01 T00700015  RH  068%=      5-min Rain = 0
KSB1 100340Z 28003KT 07/02 A3036 RMK A01 T00710015  RH  067%=      5-min Rain = 0
KSB1 100341Z 28004KT 07/02 A3036 RMK A01 T00720015  RH  067%=      5-min Rain = 0
KSB1 100342Z 28004KT 07/02 A3036 RMK A01 T00730016  RH  067%=      5-min Rain = 0
KSB1 100343Z 28005KT 07/02 A3036 RMK A01 T00730016  RH  067%=      5-min Rain = 0
KSB1 100344Z 29005KT 07/02 A3036 RMK A01 T00720017  RH  068%=      5-min Rain = 0
KSB1 100345Z 29005KT 07/02 A3036 RMK A01 T00710017  RH  069%=      5-min Rain = 0
KSB1 100346Z 29005KT 07/02 A3036 RMK A01 T00700018  RH  069%=      5-min Rain = 0
KSB1 100347Z 29005KT 07/02 A3036 RMK A01 T00710018  RH  069%=      5-min Rain = 0
KSB1 100348Z 31003KT 07/02 A3037 RMK A01 T00710018  RH  069%=      5-min Rain = 0
KSB1 100349Z 02001KT 07/02 A3037 RMK A01 T00680016  RH  069%=      5-min Rain = 0
KSB1 100350Z 01001KT 06/01 A3037 RMK A01 T00620014  RH  072%=      5-min Rain = 0
KSB1 100351Z 36002KT 06/02 A3037 RMK A01 T00570015  RH  074%=      5-min Rain = 0
KSB1 100352Z 33002KT 06/02 A3037 RMK A01 T00550017  RH  076%=      5-min Rain = 0
KSB1 100353Z 33002KT 06/02 A3037 RMK A01 T00550017  RH  076%=      5-min Rain = 0
KSB1 100354Z 33003KT 06/02 A3037 RMK A01 T00550017  RH  076%=      5-min Rain = 0
KSB1 100355Z 34003KT 06/02 A3037 RMK A01 T00560018  RH  076%=      5-min Rain = 0
KSB1 100356Z 32003KT 06/02 A3037 RMK A01 T00570017  RH  075%=      5-min Rain = 0
KSB1 100357Z 31004KT 06/02 A3037 RMK A01 T00580017  RH  075%=      5-min Rain = 0
KSB1 100358Z 32003KT 06/02 A3037 RMK A01 T00580017  RH  075%=      5-min Rain = 0
KSB1 100359Z 32003KT 06/02 A3037 RMK A01 T00570017  RH  075%=      5-min Rain = 0
KSB1 100400Z 32003KT 06/02 A3037 RMK A01 T00560016  RH  076%=      5-min Rain = 0
KSB1 100401Z 32003KT 06/02 A3036 RMK A01 T00550017  RH  076%=      5-min Rain = 0
KSB1 100402Z 31002KT 06/02 A3037 RMK A01 T00560016  RH  076%=      5-min Rain = 0
KSB1 100403Z 27002KT 06/02 A3036 RMK A01 T00580015  RH  074%=      5-min Rain = 0
KSB1 100404Z 24001KT 06/02 A3036 RMK A01 T00610015  RH  073%=      5-min Rain = 0
KSB1 100405Z 25001KT 06/02 A3036 RMK A01 T00620015  RH  072%=      5-min Rain = 0
KSB1 100406Z 26001KT 06/02 A3036 RMK A01 T00640015  RH  071%=      5-min Rain = 0
KSB1 100407Z 26001KT 07/02 A3036 RMK A01 T00650015  RH  070%=      5-min Rain = 0
KSB1 100408Z 27001KT 07/02 A3036 RMK A01 T00660015  RH  070%=      5-min Rain = 0
KSB1 100409Z 27000KT 07/02 A3036 RMK A01 T00660015  RH  070%=      5-min Rain = 0
KSB1 100410Z 00000KT 07/02 A3036 RMK A01 T00660015  RH  070%=      5-min Rain = 0
KSB1 100411Z 34000KT 07/02 A3036 RMK A01 T00660015  RH  070%=      5-min Rain = 0
KSB1 100412Z 00000KT 07/01 A3037 RMK A01 T00660014  RH  069%=      5-min Rain = 0
KSB1 100413Z 00000KT 07/01 A3037 RMK A01 T00670013  RH  069%=      5-min Rain = 0
KSB1 100414Z 00000KT 07/01 A3037 RMK A01 T00670013  RH  068%=      5-min Rain = 0
KSB1 100415Z 02000KT 07/01 A3037 RMK A01 T00680013  RH  068%=      5-min Rain = 0
KSB1 100416Z 00000KT 07/01 A3037 RMK A01 T00680014  RH  068%=      5-min Rain = 0
KSB1 100417Z 00000KT 07/02 A3037 RMK A01 T00680015  RH  069%=      5-min Rain = 0
KSB1 100418Z 00000KT 07/02 A3037 RMK A01 T00680015  RH  069%=      5-min Rain = 0
KSB1 100419Z 00001KT 07/02 A3037 RMK A01 T00680015  RH  069%=      5-min Rain = 0
KSB1 100420Z 35002KT 07/02 A3037 RMK A01 T00680015  RH  069%=      5-min Rain = 0
KSB1 100421Z 35002KT 07/02 A3037 RMK A01 T00690015  RH  069%=      5-min Rain = 0
KSB1 100422Z 35002KT 07/02 A3037 RMK A01 T00680015  RH  069%=      5-min Rain = 0
KSB1 100423Z 35001KT 07/02 A3037 RMK A01 T00680015  RH  069%=      5-min Rain = 0
KSB1 100424Z 35002KT 07/02 A3037 RMK A01 T00680015  RH  069%=      5-min Rain = 0
KSB1 100425Z 35002KT 07/02 A3037 RMK A01 T00690015  RH  069%=      5-min Rain = 0
KSB1 100426Z 34001KT 07/02 A3037 RMK A01 T00680015  RH  069%=      5-min Rain = 0
KSB1 100427Z 34001KT 07/02 A3037 RMK A01 T00670015  RH  069%=      5-min Rain = 0
KSB1 100428Z 35002KT 07/02 A3037 RMK A01 T00670016  RH  070%=      5-min Rain = 0
KSB1 100429Z 35002KT 07/02 A3037 RMK A01 T00670016  RH  070%=      5-min Rain = 0
KSB1 100430Z 35001KT 07/02 A3037 RMK A01 T00670016  RH  070%=      5-min Rain = 0
KSB1 100431Z 00003KT 07/02 A3037 RMK A01 T00670016  RH  070%=      5-min Rain = 0
KSB1 100432Z 00004KT 07/02 A3037 RMK A01 T00660015  RH  070%=      5-min Rain = 0
KSB1 100433Z 01003KT 06/01 A3037 RMK A01 T00610014  RH  072%=      5-min Rain = 0
KSB1 100434Z 01002KT 06/01 A3037 RMK A01 T00570014  RH  074%=      5-min Rain = 0
KSB1 100435Z 01003KT 06/02 A3037 RMK A01 T00560015  RH  075%=      5-min Rain = 0
KSB1 100436Z 00003KT 06/02 A3037 RMK A01 T00560015  RH  075%=      5-min Rain = 0
KSB1 100437Z 00003KT 06/01 A3037 RMK A01 T00550014  RH  075%=      5-min Rain = 0
KSB1 100438Z 35003KT 06/02 A3037 RMK A01 T00550015  RH  075%=      5-min Rain = 0
KSB1 100439Z 35002KT 06/02 A3037 RMK A01 T00550015  RH  076%=      5-min Rain = 0
KSB1 100440Z 34001KT 06/02 A3037 RMK A01 T00550015  RH  075%=      5-min Rain = 0
KSB1 100441Z 33002KT 06/02 A3037 RMK A01 T00570016  RH  075%=      5-min Rain = 0
KSB1 100442Z 33002KT 06/02 A3037 RMK A01 T00580015  RH  074%=      5-min Rain = 0
KSB1 100443Z 27001KT 06/02 A3037 RMK A01 T00590015  RH  073%=      5-min Rain = 0
KSB1 100444Z 27001KT 06/02 A3037 RMK A01 T00600015  RH  073%=      5-min Rain = 0
KSB1 100445Z 27000KT 06/02 A3037 RMK A01 T00610015  RH  072%=      5-min Rain = 0
KSB1 100446Z 34001KT 06/02 A3037 RMK A01 T00620015  RH  072%=      5-min Rain = 0
KSB1 100447Z 29001KT 06/02 A3037 RMK A01 T00620015  RH  072%=      5-min Rain = 0
KSB1 100448Z 32000KT 06/01 A3037 RMK A01 T00620014  RH  071%=      5-min Rain = 0
KSB1 100449Z 26001KT 06/01 A3037 RMK A01 T00630013  RH  070%=      5-min Rain = 0
KSB1 100450Z 26002KT 06/01 A3037 RMK A01 T00640012  RH  069%=      5-min Rain = 0
KSB1 100451Z 26003KT 06/01 A3037 RMK A01 T00620012  RH  070%=      5-min Rain = 0
KSB1 100452Z 26004KT 06/01 A3037 RMK A01 T00600012  RH  071%=      5-min Rain = 0
KSB1 100453Z 26004KT 06/01 A3037 RMK A01 T00620012  RH  070%=      5-min Rain = 0
KSB1 100454Z 26004KT 06/01 A3037 RMK A01 T00640012  RH  069%=      5-min Rain = 0
KSB1 100455Z 26004KT 07/01 A3037 RMK A01 T00650012  RH  069%=      5-min Rain = 0
KSB1 100456Z 25004KT 07/01 A3037 RMK A01 T00650011  RH  069%=      5-min Rain = 0
KSB1 100457Z 25003KT 07/01 A3037 RMK A01 T00650011  RH  068%=      5-min Rain = 0
KSB1 100458Z 26003KT 07/01 A3037 RMK A01 T00660010  RH  067%=      5-min Rain = 0
KSB1 100459Z 26002KT 07/01 A3037 RMK A01 T00670010  RH  067%=      5-min Rain = 0
KSB1 100500Z 27003KT 07/01 A3037 RMK A01 T00660010  RH  067%=      5-min Rain = 0
KSB1 100501Z 28002KT 07/01 A3037 RMK A01 T00660009  RH  067%=      5-min Rain = 0
KSB1 100502Z 27003KT 07/01 A3037 RMK A01 T00660010  RH  067%=      5-min Rain = 0
KSB1 100503Z 27003KT 07/01 A3037 RMK A01 T00660010  RH  067%=      5-min Rain = 0
KSB1 100504Z 27002KT 07/01 A3037 RMK A01 T00660010  RH  067%=      5-min Rain = 0
KSB1 100505Z 26003KT 07/01 A3037 RMK A01 T00650010  RH  068%=      5-min Rain = 0
KSB1 100506Z 26003KT 07/01 A3037 RMK A01 T00650009  RH  068%=      5-min Rain = 0
KSB1 100507Z 27003KT 07/01 A3037 RMK A01 T00680010  RH  066%=      5-min Rain = 0
KSB1 100508Z 27004KT 07/01 A3037 RMK A01 T00700010  RH  066%=      5-min Rain = 0
KSB1 100509Z 28004KT 07/01 A3037 RMK A01 T00690009  RH  065%=      5-min Rain = 0
KSB1 100510Z 28004KT 07/01 A3037 RMK A01 T00690009  RH  065%=      5-min Rain = 0
KSB1 100511Z 28003KT 07/01 A3037 RMK A01 T00700008  RH  065%=      5-min Rain = 0
KSB1 100512Z 28004KT 07/01 A3037 RMK A01 T00710008  RH  064%=      5-min Rain = 0
KSB1 100513Z 28004KT 07/01 A3037 RMK A01 T00710009  RH  065%=      5-min Rain = 0
KSB1 100514Z 28004KT 07/01 A3037 RMK A01 T00710009  RH  065%=      5-min Rain = 0
KSB1 100515Z 28005KT 07/01 A3037 RMK A01 T00710010  RH  065%=      5-min Rain = 0
KSB1 100516Z 28005KT 07/01 A3037 RMK A01 T00710011  RH  066%=      5-min Rain = 0
KSB1 100517Z 28005KT 07/01 A3037 RMK A01 T00690011  RH  066%=      5-min Rain = 0
KSB1 100518Z 28005KT 07/01 A3037 RMK A01 T00690011  RH  067%=      5-min Rain = 0
KSB1 100519Z 28005KT 07/01 A3037 RMK A01 T00680011  RH  067%=      5-min Rain = 0
KSB1 100520Z 28005KT 07/01 A3037 RMK A01 T00680012  RH  067%=      5-min Rain = 0
KSB1 100521Z 28006KT 07/01 A3037 RMK A01 T00680012  RH  067%=      5-min Rain = 0
KSB1 100522Z 28005KT 07/01 A3037 RMK A01 T00680012  RH  067%=      5-min Rain = 0
KSB1 100523Z 29005KT 07/01 A3037 RMK A01 T00680012  RH  067%=      5-min Rain = 0
KSB1 100524Z 33004KT 07/01 A3037 RMK A01 T00680011  RH  067%=      5-min Rain = 0
KSB1 100525Z 33004KT 07/01 A3037 RMK A01 T00680011  RH  067%=      5-min Rain = 0
KSB1 100526Z 35004KT 07/01 A3037 RMK A01 T00680009  RH  066%=      5-min Rain = 0
KSB1 100527Z 36004KT 07/01 A3037 RMK A01 T00660007  RH  066%=      5-min Rain = 0
KSB1 100528Z 01003KT 06/00 A3037 RMK A01 T00560002  RH  068%=      5-min Rain = 0
KSB1 100529Z 03003KT 05/M00 A3037 RMK A01 T00451001  RH  072%=      5-min Rain = 0
KSB1 100530Z 01003KT 04/M00 A3037 RMK A01 T00361003  RH  076%=      5-min Rain = 0
KSB1 100531Z 34003KT 03/M00 A3037 RMK A01 T00301001  RH  080%=      5-min Rain = 0
KSB1 100532Z 34003KT 03/00 A3037 RMK A01 T00290003  RH  083%=      5-min Rain = 0
KSB1 100533Z 34003KT 03/01 A3037 RMK A01 T00290005  RH  084%=      5-min Rain = 0
KSB1 100534Z 33003KT 03/01 A3037 RMK A01 T00320008  RH  084%=      5-min Rain = 0
KSB1 100535Z 33003KT 04/01 A3037 RMK A01 T00370010  RH  083%=      5-min Rain = 0
KSB1 100536Z 33003KT 04/01 A3037 RMK A01 T00420010  RH  080%=      5-min Rain = 0
KSB1 100537Z 33003KT 05/01 A3037 RMK A01 T00460010  RH  078%=      5-min Rain = 0
KSB1 100538Z 34003KT 05/01 A3037 RMK A01 T00490010  RH  076%=      5-min Rain = 0
KSB1 100539Z 33003KT 05/01 A3037 RMK A01 T00520010  RH  074%=      5-min Rain = 0
KSB1 100540Z 34003KT 06/01 A3037 RMK A01 T00550010  RH  073%=      5-min Rain = 0
KSB1 100541Z 34003KT 06/01 A3037 RMK A01 T00570010  RH  072%=      5-min Rain = 0
KSB1 100542Z 34003KT 06/01 A3037 RMK A01 T00590009  RH  071%=      5-min Rain = 0
KSB1 100543Z 34003KT 06/01 A3037 RMK A01 T00600009  RH  070%=      5-min Rain = 0
KSB1 100544Z 34003KT 06/01 A3037 RMK A01 T00600010  RH  070%=      5-min Rain = 0
KSB1 100545Z 01004KT 06/01 A3037 RMK A01 T00590009  RH  070%=      5-min Rain = 0
KSB1 100546Z 03005KT 05/00 A3037 RMK A01 T00520004  RH  071%=      5-min Rain = 0
KSB1 100547Z 03005KT 04/00 A3038 RMK A01 T00430002  RH  075%=      5-min Rain = 0
KSB1 100548Z 01004KT 04/00 A3038 RMK A01 T00370003  RH  078%=      5-min Rain = 0
KSB1 100549Z 00004KT 03/00 A3037 RMK A01 T00340004  RH  081%=      5-min Rain = 0
KSB1 100550Z 01004KT 03/01 A3038 RMK A01 T00320005  RH  082%=      5-min Rain = 0
KSB1 100551Z 01004KT 03/01 A3038 RMK A01 T00330007  RH  083%=      5-min Rain = 0
KSB1 100552Z 01003KT 03/01 A3038 RMK A01 T00340008  RH  083%=      5-min Rain = 0
KSB1 100553Z 01002KT 03/01 A3038 RMK A01 T00340008  RH  083%=      5-min Rain = 0
KSB1 100554Z 01002KT 03/01 A3038 RMK A01 T00340007  RH  083%=      5-min Rain = 0
KSB1 100555Z 36002KT 03/01 A3038 RMK A01 T00330007  RH  083%=      5-min Rain = 0
KSB1 100556Z 36002KT 03/01 A3038 RMK A01 T00330007  RH  083%=      5-min Rain = 0
KSB1 100557Z 01003KT 03/01 A3038 RMK A01 T00330009  RH  084%=      5-min Rain = 0
KSB1 100558Z 03003KT 04/01 A3038 RMK A01 T00350010  RH  084%=      5-min Rain = 0
KSB1 100559Z 03003KT 04/01 A3038 RMK A01 T00360011  RH  084%=      5-min Rain = 0

Page generated in 0.1187 seconds.